<?xml version="1.0" encoding="utf-8"?>
<gpx xmlns:xsi="http://www.w3.org/2001/XMLSchema-instance" xmlns:xsd="http://www.w3.org/2001/XMLSchema" version="1.1" creator="Shapelink.com" xmlns="http://www.topografix.com/GPX/1/1" xmlns:gpxtpx="http://www.garmin.com/xmlschemas/TrackPointExtension/v1">
  <metadata>
    <name>Ejecutar 3.98 km, 2020-03-05</name>
    <desc></desc>
    <author><name>Per Rooth</name></author> 
    <time>2020-03-05T18:20:03Z</time>
  </metadata>
  <trk>
    <name>Ejecutar 3.98 km, 2020-03-05</name>
    <trkseg>
      <trkpt lat="56.87114204679" lon="14.91947941341">
        <ele>148.6</ele>
        <time>2020-03-05T18:20:03Z</time>
      </trkpt>
      <trkpt lat="56.871317899052" lon="14.919598771666">
        <ele>149</ele>
        <time>2020-03-05T18:20:16Z</time>
      </trkpt>
      <trkpt lat="56.871344218218" lon="14.919633053637">
        <ele>148.8</ele>
        <time>2020-03-05T18:20:19Z</time>
      </trkpt>
      <trkpt lat="56.871399538758" lon="14.919752579531">
        <ele>149.6</ele>
        <time>2020-03-05T18:20:29Z</time>
      </trkpt>
      <trkpt lat="56.871446142122" lon="14.919776803222">
        <ele>148.4</ele>
        <time>2020-03-05T18:20:33Z</time>
      </trkpt>
      <trkpt lat="56.871560974152" lon="14.919825502061">
        <ele>147.6</ele>
        <time>2020-03-05T18:20:41Z</time>
      </trkpt>
      <trkpt lat="56.871657785097" lon="14.919862885335">
        <ele>147</ele>
        <time>2020-03-05T18:20:45Z</time>
      </trkpt>
      <trkpt lat="56.871721319899" lon="14.919864310258">
        <ele>145.8</ele>
        <time>2020-03-05T18:20:48Z</time>
      </trkpt>
      <trkpt lat="56.871749818359" lon="14.919868501208">
        <ele>145.4</ele>
        <time>2020-03-05T18:20:50Z</time>
      </trkpt>
      <trkpt lat="56.871767923263" lon="14.919874787633">
        <ele>144.8</ele>
        <time>2020-03-05T18:20:52Z</time>
      </trkpt>
      <trkpt lat="56.87177739481" lon="14.919869339398">
        <ele>144.4</ele>
        <time>2020-03-05T18:20:53Z</time>
      </trkpt>
      <trkpt lat="56.871801618501" lon="14.91985827529">
        <ele>144.2</ele>
        <time>2020-03-05T18:20:55Z</time>
      </trkpt>
      <trkpt lat="56.871811257686" lon="14.919852324141">
        <ele>144.2</ele>
        <time>2020-03-05T18:20:56Z</time>
      </trkpt>
      <trkpt lat="56.871878731981" lon="14.919777557593">
        <ele>144.4</ele>
        <time>2020-03-05T18:21:01Z</time>
      </trkpt>
      <trkpt lat="56.871969591777" lon="14.919702623407">
        <ele>143.6</ele>
        <time>2020-03-05T18:21:07Z</time>
      </trkpt>
      <trkpt lat="56.871977303125" lon="14.919690385833">
        <ele>143.4</ele>
        <time>2020-03-05T18:21:08Z</time>
      </trkpt>
      <trkpt lat="56.871997587323" lon="14.919639088605">
        <ele>143</ele>
        <time>2020-03-05T18:21:12Z</time>
      </trkpt>
      <trkpt lat="56.87201041163" lon="14.919620313149">
        <ele>142.8</ele>
        <time>2020-03-05T18:21:14Z</time>
      </trkpt>
      <trkpt lat="56.872015021675" lon="14.919600364227">
        <ele>142.6</ele>
        <time>2020-03-05T18:21:15Z</time>
      </trkpt>
      <trkpt lat="56.872017787702" lon="14.919582175504">
        <ele>142.6</ele>
        <time>2020-03-05T18:21:16Z</time>
      </trkpt>
      <trkpt lat="56.872024074127" lon="14.919556107795">
        <ele>142.4</ele>
        <time>2020-03-05T18:21:18Z</time>
      </trkpt>
      <trkpt lat="56.872028265077" lon="14.919519730349">
        <ele>142.2</ele>
        <time>2020-03-05T18:21:20Z</time>
      </trkpt>
      <trkpt lat="56.872037988081" lon="14.919454686805">
        <ele>141.8</ele>
        <time>2020-03-05T18:21:24Z</time>
      </trkpt>
      <trkpt lat="56.872052069673" lon="14.919428451458">
        <ele>141.6</ele>
        <time>2020-03-05T18:21:26Z</time>
      </trkpt>
      <trkpt lat="56.872073108242" lon="14.919368688511">
        <ele>141.2</ele>
        <time>2020-03-05T18:21:30Z</time>
      </trkpt>
      <trkpt lat="56.87208333416" lon="14.919333819807">
        <ele>141.2</ele>
        <time>2020-03-05T18:21:32Z</time>
      </trkpt>
      <trkpt lat="56.872088866214" lon="14.919284366597">
        <ele>141.4</ele>
        <time>2020-03-05T18:21:35Z</time>
      </trkpt>
      <trkpt lat="56.872083753255" lon="14.919254107938">
        <ele>141.4</ele>
        <time>2020-03-05T18:21:38Z</time>
      </trkpt>
      <trkpt lat="56.872080316676" lon="14.919225022745">
        <ele>141.4</ele>
        <time>2020-03-05T18:21:40Z</time>
      </trkpt>
      <trkpt lat="56.872080903409" lon="14.919191243688">
        <ele>141.4</ele>
        <time>2020-03-05T18:21:43Z</time>
      </trkpt>
      <trkpt lat="56.872089452947" lon="14.919182023598">
        <ele>141.6</ele>
        <time>2020-03-05T18:21:45Z</time>
      </trkpt>
      <trkpt lat="56.872103785996" lon="14.919155536794">
        <ele>141.6</ele>
        <time>2020-03-05T18:21:47Z</time>
      </trkpt>
      <trkpt lat="56.872113592819" lon="14.9190863023">
        <ele>142</ele>
        <time>2020-03-05T18:21:50Z</time>
      </trkpt>
      <trkpt lat="56.872114766285" lon="14.919040285669">
        <ele>142.2</ele>
        <time>2020-03-05T18:21:52Z</time>
      </trkpt>
      <trkpt lat="56.87211769995" lon="14.918976164134">
        <ele>142</ele>
        <time>2020-03-05T18:21:55Z</time>
      </trkpt>
      <trkpt lat="56.872110407697" lon="14.918920759775">
        <ele>141.8</ele>
        <time>2020-03-05T18:21:57Z</time>
      </trkpt>
      <trkpt lat="56.872127339135" lon="14.918858649896">
        <ele>142</ele>
        <time>2020-03-05T18:22:00Z</time>
      </trkpt>
      <trkpt lat="56.872138989976" lon="14.918815902206">
        <ele>142.2</ele>
        <time>2020-03-05T18:22:02Z</time>
      </trkpt>
      <trkpt lat="56.87213614013" lon="14.91876611372">
        <ele>142</ele>
        <time>2020-03-05T18:22:05Z</time>
      </trkpt>
      <trkpt lat="56.872139157614" lon="14.918745494246">
        <ele>141.8</ele>
        <time>2020-03-05T18:22:07Z</time>
      </trkpt>
      <trkpt lat="56.872144354392" lon="14.918718420709">
        <ele>141.6</ele>
        <time>2020-03-05T18:22:09Z</time>
      </trkpt>
      <trkpt lat="56.872142175098" lon="14.918601241747">
        <ele>142.2</ele>
        <time>2020-03-05T18:22:14Z</time>
      </trkpt>
      <trkpt lat="56.87214200746" lon="14.918551788537">
        <ele>142.8</ele>
        <time>2020-03-05T18:22:16Z</time>
      </trkpt>
      <trkpt lat="56.872146533686" lon="14.918487080269">
        <ele>143</ele>
        <time>2020-03-05T18:22:19Z</time>
      </trkpt>
      <trkpt lat="56.872243679907" lon="14.918339391191">
        <ele>142.6</ele>
        <time>2020-03-05T18:22:27Z</time>
      </trkpt>
      <trkpt lat="56.87227108872" lon="14.918325728694">
        <ele>142.4</ele>
        <time>2020-03-05T18:22:30Z</time>
      </trkpt>
      <trkpt lat="56.872266562494" lon="14.918390939876">
        <ele>142</ele>
        <time>2020-03-05T18:22:39Z</time>
      </trkpt>
      <trkpt lat="56.872288439253" lon="14.918411726988">
        <ele>142</ele>
        <time>2020-03-05T18:22:42Z</time>
      </trkpt>
      <trkpt lat="56.872317105351" lon="14.9184073684">
        <ele>141.8</ele>
        <time>2020-03-05T18:22:44Z</time>
      </trkpt>
      <trkpt lat="56.872332192771" lon="14.918405189106">
        <ele>141.8</ele>
        <time>2020-03-05T18:22:45Z</time>
      </trkpt>
      <trkpt lat="56.872391871899" lon="14.918417594318">
        <ele>141</ele>
        <time>2020-03-05T18:22:50Z</time>
      </trkpt>
      <trkpt lat="56.8724404031" lon="14.918363866339">
        <ele>141.4</ele>
        <time>2020-03-05T18:22:54Z</time>
      </trkpt>
      <trkpt lat="56.872493041432" lon="14.918337463354">
        <ele>142</ele>
        <time>2020-03-05T18:22:57Z</time>
      </trkpt>
      <trkpt lat="56.872594127146" lon="14.918337966268">
        <ele>142.2</ele>
        <time>2020-03-05T18:23:00Z</time>
      </trkpt>
      <trkpt lat="56.872648106582" lon="14.918274766742">
        <ele>142.4</ele>
        <time>2020-03-05T18:23:03Z</time>
      </trkpt>
      <trkpt lat="56.872665205658" lon="14.918256745657">
        <ele>142.8</ele>
        <time>2020-03-05T18:23:04Z</time>
      </trkpt>
      <trkpt lat="56.872725136243" lon="14.918165802042">
        <ele>143.8</ele>
        <time>2020-03-05T18:23:08Z</time>
      </trkpt>
      <trkpt lat="56.872737373817" lon="14.91814585312">
        <ele>144</ele>
        <time>2020-03-05T18:23:09Z</time>
      </trkpt>
      <trkpt lat="56.872778948041" lon="14.918004534286">
        <ele>144.4</ele>
        <time>2020-03-05T18:23:15Z</time>
      </trkpt>
      <trkpt lat="56.872799902791" lon="14.917951309221">
        <ele>145</ele>
        <time>2020-03-05T18:23:17Z</time>
      </trkpt>
      <trkpt lat="56.872923368178" lon="14.917683926611">
        <ele>145.6</ele>
        <time>2020-03-05T18:23:27Z</time>
      </trkpt>
      <trkpt lat="56.87301372506" lon="14.917565741821">
        <ele>146.2</ele>
        <time>2020-03-05T18:23:32Z</time>
      </trkpt>
      <trkpt lat="56.873032249059" lon="14.917503380485">
        <ele>146.4</ele>
        <time>2020-03-05T18:23:35Z</time>
      </trkpt>
      <trkpt lat="56.873088575427" lon="14.917450239239">
        <ele>145.4</ele>
        <time>2020-03-05T18:23:41Z</time>
      </trkpt>
      <trkpt lat="56.873140207931" lon="14.917416795458">
        <ele>145.2</ele>
        <time>2020-03-05T18:23:46Z</time>
      </trkpt>
      <trkpt lat="56.873318071849" lon="14.917326019481">
        <ele>145.2</ele>
        <time>2020-03-05T18:23:55Z</time>
      </trkpt>
      <trkpt lat="56.873340200065" lon="14.917320152151">
        <ele>145</ele>
        <time>2020-03-05T18:23:56Z</time>
      </trkpt>
      <trkpt lat="56.87342695273" lon="14.917269190199">
        <ele>143.6</ele>
        <time>2020-03-05T18:24:00Z</time>
      </trkpt>
      <trkpt lat="56.873517225793" lon="14.917229292355">
        <ele>142.6</ele>
        <time>2020-03-05T18:24:04Z</time>
      </trkpt>
      <trkpt lat="56.873580509138" lon="14.917221078093">
        <ele>142.2</ele>
        <time>2020-03-05T18:24:08Z</time>
      </trkpt>
      <trkpt lat="56.873634488574" lon="14.917188388683">
        <ele>141.8</ele>
        <time>2020-03-05T18:24:12Z</time>
      </trkpt>
      <trkpt lat="56.873667177984" lon="14.91716517082">
        <ele>141.4</ele>
        <time>2020-03-05T18:24:15Z</time>
      </trkpt>
      <trkpt lat="56.873680756662" lon="14.917159387309">
        <ele>141.4</ele>
        <time>2020-03-05T18:24:16Z</time>
      </trkpt>
      <trkpt lat="56.873770862087" lon="14.917143964613">
        <ele>141.8</ele>
        <time>2020-03-05T18:24:21Z</time>
      </trkpt>
      <trkpt lat="56.873812436311" lon="14.91711320304">
        <ele>142</ele>
        <time>2020-03-05T18:24:24Z</time>
      </trkpt>
      <trkpt lat="56.873986528374" lon="14.917110939927">
        <ele>142.4</ele>
        <time>2020-03-05T18:24:35Z</time>
      </trkpt>
      <trkpt lat="56.87399356917" lon="14.917117310171">
        <ele>142.4</ele>
        <time>2020-03-05T18:24:36Z</time>
      </trkpt>
      <trkpt lat="56.874000442328" lon="14.917124686243">
        <ele>142.6</ele>
        <time>2020-03-05T18:24:37Z</time>
      </trkpt>
      <trkpt lat="56.87401787668" lon="14.917159890223">
        <ele>142.6</ele>
        <time>2020-03-05T18:24:40Z</time>
      </trkpt>
      <trkpt lat="56.874084764242" lon="14.917167517752">
        <ele>142.6</ele>
        <time>2020-03-05T18:24:45Z</time>
      </trkpt>
      <trkpt lat="56.874099097291" lon="14.917156621282">
        <ele>142.8</ele>
        <time>2020-03-05T18:24:46Z</time>
      </trkpt>
      <trkpt lat="56.874188448345" lon="14.91716181806">
        <ele>143.6</ele>
        <time>2020-03-05T18:24:51Z</time>
      </trkpt>
      <trkpt lat="56.874203200489" lon="14.917159052033">
        <ele>143.8</ele>
        <time>2020-03-05T18:24:52Z</time>
      </trkpt>
      <trkpt lat="56.874405288098" lon="14.917137762007">
        <ele>144.2</ele>
        <time>2020-03-05T18:25:01Z</time>
      </trkpt>
      <trkpt lat="56.874466978882" lon="14.91713164322">
        <ele>144.4</ele>
        <time>2020-03-05T18:25:03Z</time>
      </trkpt>
      <trkpt lat="56.874506206174" lon="14.917085626589">
        <ele>144.6</ele>
        <time>2020-03-05T18:25:05Z</time>
      </trkpt>
      <trkpt lat="56.874531519512" lon="14.917021588873">
        <ele>145</ele>
        <time>2020-03-05T18:25:08Z</time>
      </trkpt>
      <trkpt lat="56.874534872272" lon="14.917005747082">
        <ele>145.2</ele>
        <time>2020-03-05T18:25:09Z</time>
      </trkpt>
      <trkpt lat="56.874600251092" lon="14.917111191384">
        <ele>145.2</ele>
        <time>2020-03-05T18:25:24Z</time>
      </trkpt>
      <trkpt lat="56.874611063743" lon="14.91743758257">
        <ele>143.4</ele>
        <time>2020-03-05T18:25:36Z</time>
      </trkpt>
      <trkpt lat="56.874618942729" lon="14.917480833174">
        <ele>143.2</ele>
        <time>2020-03-05T18:25:37Z</time>
      </trkpt>
      <trkpt lat="56.874627743724" lon="14.91765048283">
        <ele>142.4</ele>
        <time>2020-03-05T18:25:42Z</time>
      </trkpt>
      <trkpt lat="56.87467417945" lon="14.917790712017">
        <ele>142</ele>
        <time>2020-03-05T18:25:47Z</time>
      </trkpt>
      <trkpt lat="56.874691865259" lon="14.917935383611">
        <ele>141.4</ele>
        <time>2020-03-05T18:25:59Z</time>
      </trkpt>
      <trkpt lat="56.874683315721" lon="14.91807879792">
        <ele>141</ele>
        <time>2020-03-05T18:26:06Z</time>
      </trkpt>
      <trkpt lat="56.874668395939" lon="14.918212740682">
        <ele>140.8</ele>
        <time>2020-03-05T18:26:10Z</time>
      </trkpt>
      <trkpt lat="56.874676358744" lon="14.918249285766">
        <ele>140.8</ele>
        <time>2020-03-05T18:26:12Z</time>
      </trkpt>
      <trkpt lat="56.874679627685" lon="14.918375181904">
        <ele>141.2</ele>
        <time>2020-03-05T18:26:16Z</time>
      </trkpt>
      <trkpt lat="56.874687422852" lon="14.918403261269">
        <ele>141.2</ele>
        <time>2020-03-05T18:26:17Z</time>
      </trkpt>
      <trkpt lat="56.874750035645" lon="14.918488002278">
        <ele>141.8</ele>
        <time>2020-03-05T18:26:21Z</time>
      </trkpt>
      <trkpt lat="56.874862436924" lon="14.918469729736">
        <ele>141.6</ele>
        <time>2020-03-05T18:26:27Z</time>
      </trkpt>
      <trkpt lat="56.874881547656" lon="14.918408793323">
        <ele>141.6</ele>
        <time>2020-03-05T18:26:30Z</time>
      </trkpt>
      <trkpt lat="56.874930246495" lon="14.918320783373">
        <ele>142</ele>
        <time>2020-03-05T18:26:35Z</time>
      </trkpt>
      <trkpt lat="56.875006437966" lon="14.918047701071">
        <ele>142.4</ele>
        <time>2020-03-05T18:26:45Z</time>
      </trkpt>
      <trkpt lat="56.875015574237" lon="14.918032362194">
        <ele>142.6</ele>
        <time>2020-03-05T18:26:46Z</time>
      </trkpt>
      <trkpt lat="56.875019932825" lon="14.918023058285">
        <ele>142.8</ele>
        <time>2020-03-05T18:26:47Z</time>
      </trkpt>
      <trkpt lat="56.875067374379" lon="14.918066811803">
        <ele>142.2</ele>
        <time>2020-03-05T18:27:06Z</time>
      </trkpt>
      <trkpt lat="56.875041055213" lon="14.918246352101">
        <ele>141.6</ele>
        <time>2020-03-05T18:27:12Z</time>
      </trkpt>
      <trkpt lat="56.875022112119" lon="14.918264792281">
        <ele>141.4</ele>
        <time>2020-03-05T18:27:13Z</time>
      </trkpt>
      <trkpt lat="56.874997469333" lon="14.918292871646">
        <ele>141.2</ele>
        <time>2020-03-05T18:27:15Z</time>
      </trkpt>
      <trkpt lat="56.874918176559" lon="14.918502586784">
        <ele>141.4</ele>
        <time>2020-03-05T18:27:20Z</time>
      </trkpt>
      <trkpt lat="56.874898898189" lon="14.918727389342">
        <ele>141.6</ele>
        <time>2020-03-05T18:27:30Z</time>
      </trkpt>
      <trkpt lat="56.874869226263" lon="14.918862673208">
        <ele>141.2</ele>
        <time>2020-03-05T18:27:35Z</time>
      </trkpt>
      <trkpt lat="56.874843326192" lon="14.919021594032">
        <ele>141.4</ele>
        <time>2020-03-05T18:27:41Z</time>
      </trkpt>
      <trkpt lat="56.874827903496" lon="14.919253605024">
        <ele>140.4</ele>
        <time>2020-03-05T18:27:49Z</time>
      </trkpt>
      <trkpt lat="56.874819521596" lon="14.919288809004">
        <ele>140.2</ele>
        <time>2020-03-05T18:27:50Z</time>
      </trkpt>
      <trkpt lat="56.874821114157" lon="14.919416046246">
        <ele>140.4</ele>
        <time>2020-03-05T18:27:55Z</time>
      </trkpt>
      <trkpt lat="56.874811894067" lon="14.919529201896">
        <ele>140.2</ele>
        <time>2020-03-05T18:28:02Z</time>
      </trkpt>
      <trkpt lat="56.874814827732" lon="14.919628443592">
        <ele>140.2</ele>
        <time>2020-03-05T18:28:07Z</time>
      </trkpt>
      <trkpt lat="56.87480912804" lon="14.919683428856">
        <ele>140.2</ele>
        <time>2020-03-05T18:28:09Z</time>
      </trkpt>
      <trkpt lat="56.874819270139" lon="14.919757860128">
        <ele>140.2</ele>
        <time>2020-03-05T18:28:13Z</time>
      </trkpt>
      <trkpt lat="56.874815079189" lon="14.919802535655">
        <ele>140</ele>
        <time>2020-03-05T18:28:15Z</time>
      </trkpt>
      <trkpt lat="56.874805020909" lon="14.919888031035">
        <ele>140</ele>
        <time>2020-03-05T18:28:18Z</time>
      </trkpt>
      <trkpt lat="56.874799488855" lon="14.91993455058">
        <ele>140</ele>
        <time>2020-03-05T18:28:20Z</time>
      </trkpt>
      <trkpt lat="56.874800327045" lon="14.919996157545">
        <ele>140</ele>
        <time>2020-03-05T18:28:22Z</time>
      </trkpt>
      <trkpt lat="56.874810301506" lon="14.920029349869">
        <ele>140</ele>
        <time>2020-03-05T18:28:24Z</time>
      </trkpt>
      <trkpt lat="56.874819521596" lon="14.92010721772">
        <ele>140.2</ele>
        <time>2020-03-05T18:28:27Z</time>
      </trkpt>
      <trkpt lat="56.874807786936" lon="14.920177960956">
        <ele>140.2</ele>
        <time>2020-03-05T18:28:29Z</time>
      </trkpt>
      <trkpt lat="56.874817426121" lon="14.920207129968">
        <ele>140.2</ele>
        <time>2020-03-05T18:28:31Z</time>
      </trkpt>
      <trkpt lat="56.874825975659" lon="14.920239065007">
        <ele>140.2</ele>
        <time>2020-03-05T18:28:33Z</time>
      </trkpt>
      <trkpt lat="56.874824299279" lon="14.920294888461">
        <ele>140.2</ele>
        <time>2020-03-05T18:28:35Z</time>
      </trkpt>
      <trkpt lat="56.874829412238" lon="14.920429501775">
        <ele>140.2</ele>
        <time>2020-03-05T18:28:40Z</time>
      </trkpt>
      <trkpt lat="56.874827484401" lon="14.920661428948">
        <ele>141.4</ele>
        <time>2020-03-05T18:28:48Z</time>
      </trkpt>
      <trkpt lat="56.874815163008" lon="14.920877095235">
        <ele>142.4</ele>
        <time>2020-03-05T18:28:54Z</time>
      </trkpt>
      <trkpt lat="56.874837207405" lon="14.920994777111">
        <ele>143.4</ele>
        <time>2020-03-05T18:28:58Z</time>
      </trkpt>
      <trkpt lat="56.874833519369" lon="14.92115495522">
        <ele>144</ele>
        <time>2020-03-05T18:29:04Z</time>
      </trkpt>
      <trkpt lat="56.874820443605" lon="14.921274648752">
        <ele>142.2</ele>
        <time>2020-03-05T18:29:09Z</time>
      </trkpt>
      <trkpt lat="56.874834944292" lon="14.921320330107">
        <ele>141.2</ele>
        <time>2020-03-05T18:29:12Z</time>
      </trkpt>
      <trkpt lat="56.874840643984" lon="14.921377997579">
        <ele>140.8</ele>
        <time>2020-03-05T18:29:15Z</time>
      </trkpt>
      <trkpt lat="56.874841063079" lon="14.921493416342">
        <ele>140.6</ele>
        <time>2020-03-05T18:29:19Z</time>
      </trkpt>
      <trkpt lat="56.87483259736" lon="14.921588383269">
        <ele>140.4</ele>
        <time>2020-03-05T18:29:24Z</time>
      </trkpt>
      <trkpt lat="56.874836620672" lon="14.921635824823">
        <ele>140.2</ele>
        <time>2020-03-05T18:29:27Z</time>
      </trkpt>
      <trkpt lat="56.874831842989" lon="14.921661557256">
        <ele>140</ele>
        <time>2020-03-05T18:29:29Z</time>
      </trkpt>
      <trkpt lat="56.874807535479" lon="14.921718973271">
        <ele>140.2</ele>
        <time>2020-03-05T18:29:34Z</time>
      </trkpt>
      <trkpt lat="56.87479906976" lon="14.921842522477">
        <ele>140</ele>
        <time>2020-03-05T18:29:41Z</time>
      </trkpt>
      <trkpt lat="56.874810888239" lon="14.921939081965">
        <ele>140</ele>
        <time>2020-03-05T18:29:46Z</time>
      </trkpt>
      <trkpt lat="56.874806110556" lon="14.921969592081">
        <ele>140</ele>
        <time>2020-03-05T18:29:47Z</time>
      </trkpt>
      <trkpt lat="56.874790436403" lon="14.922083753559">
        <ele>140</ele>
        <time>2020-03-05T18:29:51Z</time>
      </trkpt>
      <trkpt lat="56.874766212712" lon="14.92231584837">
        <ele>140</ele>
        <time>2020-03-05T18:29:58Z</time>
      </trkpt>
      <trkpt lat="56.874762943771" lon="14.922373851118">
        <ele>139.8</ele>
        <time>2020-03-05T18:30:00Z</time>
      </trkpt>
      <trkpt lat="56.874734612949" lon="14.922466890208">
        <ele>139.6</ele>
        <time>2020-03-05T18:30:03Z</time>
      </trkpt>
      <trkpt lat="56.874724722307" lon="14.922545428611">
        <ele>139.8</ele>
        <time>2020-03-05T18:30:06Z</time>
      </trkpt>
      <trkpt lat="56.874706198308" lon="14.922658332804">
        <ele>140.4</ele>
        <time>2020-03-05T18:30:10Z</time>
      </trkpt>
      <trkpt lat="56.874690021241" lon="14.922714156258">
        <ele>141.2</ele>
        <time>2020-03-05T18:30:13Z</time>
      </trkpt>
      <trkpt lat="56.874678118943" lon="14.922724382176">
        <ele>141.2</ele>
        <time>2020-03-05T18:30:14Z</time>
      </trkpt>
      <trkpt lat="56.874640987126" lon="14.922772997196">
        <ele>141.4</ele>
        <time>2020-03-05T18:30:17Z</time>
      </trkpt>
      <trkpt lat="56.874631096484" lon="14.922826473718">
        <ele>141.4</ele>
        <time>2020-03-05T18:30:19Z</time>
      </trkpt>
      <trkpt lat="56.8746196971" lon="14.922893864194">
        <ele>141.2</ele>
        <time>2020-03-05T18:30:22Z</time>
      </trkpt>
      <trkpt lat="56.874577536143" lon="14.922961673765">
        <ele>140.6</ele>
        <time>2020-03-05T18:30:25Z</time>
      </trkpt>
      <trkpt lat="56.874564963293" lon="14.923045828041">
        <ele>140.4</ele>
        <time>2020-03-05T18:30:29Z</time>
      </trkpt>
      <trkpt lat="56.874553899185" lon="14.923085139152">
        <ele>140.2</ele>
        <time>2020-03-05T18:30:31Z</time>
      </trkpt>
      <trkpt lat="56.874546439294" lon="14.923104752798">
        <ele>140.2</ele>
        <time>2020-03-05T18:30:32Z</time>
      </trkpt>
      <trkpt lat="56.874533028254" lon="14.923140962606">
        <ele>140.2</ele>
        <time>2020-03-05T18:30:34Z</time>
      </trkpt>
      <trkpt lat="56.874520455404" lon="14.923179603165">
        <ele>140.4</ele>
        <time>2020-03-05T18:30:36Z</time>
      </trkpt>
      <trkpt lat="56.874452226738" lon="14.923380852584">
        <ele>140.4</ele>
        <time>2020-03-05T18:30:42Z</time>
      </trkpt>
      <trkpt lat="56.874399169311" lon="14.923693329816">
        <ele>140.4</ele>
        <time>2020-03-05T18:30:53Z</time>
      </trkpt>
      <trkpt lat="56.874384920081" lon="14.923761055568">
        <ele>140.2</ele>
        <time>2020-03-05T18:30:55Z</time>
      </trkpt>
      <trkpt lat="56.874368743014" lon="14.923791565684">
        <ele>140.2</ele>
        <time>2020-03-05T18:30:57Z</time>
      </trkpt>
      <trkpt lat="56.874341753296" lon="14.92386063254">
        <ele>140</ele>
        <time>2020-03-05T18:31:02Z</time>
      </trkpt>
      <trkpt lat="56.874268998404" lon="14.923721912095">
        <ele>140</ele>
        <time>2020-03-05T18:31:04Z</time>
      </trkpt>
      <trkpt lat="56.874257096106" lon="14.923732976203">
        <ele>140</ele>
        <time>2020-03-05T18:31:06Z</time>
      </trkpt>
      <trkpt lat="56.874237063365" lon="14.923861806006">
        <ele>139.6</ele>
        <time>2020-03-05T18:31:12Z</time>
      </trkpt>
      <trkpt lat="56.874231363673" lon="14.923936488735">
        <ele>139.6</ele>
        <time>2020-03-05T18:31:16Z</time>
      </trkpt>
      <trkpt lat="56.874228094732" lon="14.923957778761">
        <ele>139.6</ele>
        <time>2020-03-05T18:31:17Z</time>
      </trkpt>
      <trkpt lat="56.874213426407" lon="14.924005052677">
        <ele>139.6</ele>
        <time>2020-03-05T18:31:20Z</time>
      </trkpt>
      <trkpt lat="56.874198841901" lon="14.924049728204">
        <ele>139.8</ele>
        <time>2020-03-05T18:31:23Z</time>
      </trkpt>
      <trkpt lat="56.874187358698" lon="14.924078226664">
        <ele>139.8</ele>
        <time>2020-03-05T18:31:25Z</time>
      </trkpt>
      <trkpt lat="56.874171852183" lon="14.924131451729">
        <ele>139.8</ele>
        <time>2020-03-05T18:31:28Z</time>
      </trkpt>
      <trkpt lat="56.874163051188" lon="14.924173947962">
        <ele>139.6</ele>
        <time>2020-03-05T18:31:31Z</time>
      </trkpt>
      <trkpt lat="56.874155842754" lon="14.924234632918">
        <ele>139.4</ele>
        <time>2020-03-05T18:31:34Z</time>
      </trkpt>
      <trkpt lat="56.874136396746" lon="14.924364887644">
        <ele>139.4</ele>
        <time>2020-03-05T18:31:41Z</time>
      </trkpt>
      <trkpt lat="56.874139330411" lon="14.924406210411">
        <ele>139.2</ele>
        <time>2020-03-05T18:31:43Z</time>
      </trkpt>
      <trkpt lat="56.87411091577" lon="14.924494639456">
        <ele>139.2</ele>
        <time>2020-03-05T18:31:49Z</time>
      </trkpt>
      <trkpt lat="56.874107143915" lon="14.9245261554">
        <ele>139.2</ele>
        <time>2020-03-05T18:31:51Z</time>
      </trkpt>
      <trkpt lat="56.874099767843" lon="14.92462422363">
        <ele>139.2</ele>
        <time>2020-03-05T18:31:56Z</time>
      </trkpt>
      <trkpt lat="56.874085434794" lon="14.924676610505">
        <ele>139</ele>
        <time>2020-03-05T18:31:59Z</time>
      </trkpt>
      <trkpt lat="56.87407990274" lon="14.924686584966">
        <ele>139</ele>
        <time>2020-03-05T18:32:01Z</time>
      </trkpt>
      <trkpt lat="56.87406062437" lon="14.924705947155">
        <ele>139</ele>
        <time>2020-03-05T18:32:03Z</time>
      </trkpt>
      <trkpt lat="56.874036149222" lon="14.924756909107">
        <ele>139.2</ele>
        <time>2020-03-05T18:32:08Z</time>
      </trkpt>
      <trkpt lat="56.874024917476" lon="14.924768559948">
        <ele>139.2</ele>
        <time>2020-03-05T18:32:09Z</time>
      </trkpt>
      <trkpt lat="56.874004130364" lon="14.924812900199">
        <ele>138.4</ele>
        <time>2020-03-05T18:32:13Z</time>
      </trkpt>
      <trkpt lat="56.873992563342" lon="14.924859922658">
        <ele>138.2</ele>
        <time>2020-03-05T18:32:19Z</time>
      </trkpt>
      <trkpt lat="56.873988875306" lon="14.924891270964">
        <ele>138.6</ele>
        <time>2020-03-05T18:32:23Z</time>
      </trkpt>
      <trkpt lat="56.873977308284" lon="14.924889594584">
        <ele>138.8</ele>
        <time>2020-03-05T18:32:25Z</time>
      </trkpt>
      <trkpt lat="56.873944199779" lon="14.925004426614">
        <ele>138.8</ele>
        <time>2020-03-05T18:32:34Z</time>
      </trkpt>
      <trkpt lat="56.874057187791" lon="14.925275664898">
        <ele>139.2</ele>
        <time>2020-03-05T18:32:42Z</time>
      </trkpt>
      <trkpt lat="56.874184760309" lon="14.92551857236">
        <ele>139.8</ele>
        <time>2020-03-05T18:32:48Z</time>
      </trkpt>
      <trkpt lat="56.874314093026" lon="14.925805903892">
        <ele>139.6</ele>
        <time>2020-03-05T18:32:55Z</time>
      </trkpt>
      <trkpt lat="56.874410820152" lon="14.926139168236">
        <ele>139.2</ele>
        <time>2020-03-05T18:33:02Z</time>
      </trkpt>
      <trkpt lat="56.87448726308" lon="14.926470672381">
        <ele>138.8</ele>
        <time>2020-03-05T18:33:09Z</time>
      </trkpt>
      <trkpt lat="56.874560939981" lon="14.926735205145">
        <ele>138.6</ele>
        <time>2020-03-05T18:33:16Z</time>
      </trkpt>
      <trkpt lat="56.874616092883" lon="14.926763787424">
        <ele>138</ele>
        <time>2020-03-05T18:33:20Z</time>
      </trkpt>
      <trkpt lat="56.874622127851" lon="14.926769822392">
        <ele>137.6</ele>
        <time>2020-03-05T18:33:21Z</time>
      </trkpt>
      <trkpt lat="56.87460880063" lon="14.926735037507">
        <ele>137.4</ele>
        <time>2020-03-05T18:33:26Z</time>
      </trkpt>
      <trkpt lat="56.874549121502" lon="14.926979705168">
        <ele>137.8</ele>
        <time>2020-03-05T18:33:52Z</time>
      </trkpt>
      <trkpt lat="56.874535459005" lon="14.926936957478">
        <ele>137.6</ele>
        <time>2020-03-05T18:33:56Z</time>
      </trkpt>
      <trkpt lat="56.874520036309" lon="14.926937963306">
        <ele>137.2</ele>
        <time>2020-03-05T18:33:58Z</time>
      </trkpt>
      <trkpt lat="56.874500255025" lon="14.926917762927">
        <ele>136.8</ele>
        <time>2020-03-05T18:34:00Z</time>
      </trkpt>
      <trkpt lat="56.874492711315" lon="14.926913404339">
        <ele>136.2</ele>
        <time>2020-03-05T18:34:02Z</time>
      </trkpt>
      <trkpt lat="56.874482988311" lon="14.92690577681">
        <ele>135.8</ele>
        <time>2020-03-05T18:34:04Z</time>
      </trkpt>
      <trkpt lat="56.874479048818" lon="14.926900244756">
        <ele>135.8</ele>
        <time>2020-03-05T18:34:05Z</time>
      </trkpt>
      <trkpt lat="56.874464212855" lon="14.926889432105">
        <ele>135.8</ele>
        <time>2020-03-05T18:34:10Z</time>
      </trkpt>
      <trkpt lat="56.874413083265" lon="14.926902926964">
        <ele>135.6</ele>
        <time>2020-03-05T18:34:22Z</time>
      </trkpt>
      <trkpt lat="56.874391625601" lon="14.926965372119">
        <ele>135.4</ele>
        <time>2020-03-05T18:34:26Z</time>
      </trkpt>
      <trkpt lat="56.874381567321" lon="14.926973837838">
        <ele>135.2</ele>
        <time>2020-03-05T18:34:28Z</time>
      </trkpt>
      <trkpt lat="56.874361702218" lon="14.926965539757">
        <ele>135</ele>
        <time>2020-03-05T18:34:32Z</time>
      </trkpt>
      <trkpt lat="56.87431543413" lon="14.926989176715">
        <ele>135.2</ele>
        <time>2020-03-05T18:34:38Z</time>
      </trkpt>
      <trkpt lat="56.874203787222" lon="14.927085484746">
        <ele>135.2</ele>
        <time>2020-03-05T18:34:59Z</time>
      </trkpt>
      <trkpt lat="56.874184173576" lon="14.927083221633">
        <ele>135.2</ele>
        <time>2020-03-05T18:35:01Z</time>
      </trkpt>
      <trkpt lat="56.874002286346" lon="14.927230910711">
        <ele>135.2</ele>
        <time>2020-03-05T18:35:34Z</time>
      </trkpt>
      <trkpt lat="56.873933890042" lon="14.92751933189">
        <ele>135.2</ele>
        <time>2020-03-05T18:35:58Z</time>
      </trkpt>
      <trkpt lat="56.873908241428" lon="14.927652855557">
        <ele>135.8</ele>
        <time>2020-03-05T18:36:07Z</time>
      </trkpt>
      <trkpt lat="56.873898602243" lon="14.927760060058">
        <ele>135.6</ele>
        <time>2020-03-05T18:36:17Z</time>
      </trkpt>
      <trkpt lat="56.873913522025" lon="14.92781521296">
        <ele>136</ele>
        <time>2020-03-05T18:36:21Z</time>
      </trkpt>
      <trkpt lat="56.873911929464" lon="14.927848572922">
        <ele>136.2</ele>
        <time>2020-03-05T18:36:23Z</time>
      </trkpt>
      <trkpt lat="56.873908660523" lon="14.927897523218">
        <ele>136.4</ele>
        <time>2020-03-05T18:36:26Z</time>
      </trkpt>
      <trkpt lat="56.873912767654" lon="14.927949155722">
        <ele>136.4</ele>
        <time>2020-03-05T18:36:29Z</time>
      </trkpt>
      <trkpt lat="56.873920059907" lon="14.928000872045">
        <ele>136.4</ele>
        <time>2020-03-05T18:36:33Z</time>
      </trkpt>
      <trkpt lat="56.873930369644" lon="14.928058455698">
        <ele>136.8</ele>
        <time>2020-03-05T18:36:36Z</time>
      </trkpt>
      <trkpt lat="56.873929699092" lon="14.928080081">
        <ele>136.8</ele>
        <time>2020-03-05T18:36:37Z</time>
      </trkpt>
      <trkpt lat="56.873933387128" lon="14.928139089576">
        <ele>136.8</ele>
        <time>2020-03-05T18:36:41Z</time>
      </trkpt>
      <trkpt lat="56.873931878386" lon="14.928167085122">
        <ele>137</ele>
        <time>2020-03-05T18:36:43Z</time>
      </trkpt>
      <trkpt lat="56.873931040196" lon="14.928206815328">
        <ele>137.4</ele>
        <time>2020-03-05T18:36:45Z</time>
      </trkpt>
      <trkpt lat="56.873936823707" lon="14.928264147524">
        <ele>138</ele>
        <time>2020-03-05T18:36:47Z</time>
      </trkpt>
      <trkpt lat="56.873934644413" lon="14.928293735631">
        <ele>138</ele>
        <time>2020-03-05T18:36:48Z</time>
      </trkpt>
      <trkpt lat="56.873930872558" lon="14.928342602108">
        <ele>138.4</ele>
        <time>2020-03-05T18:36:50Z</time>
      </trkpt>
      <trkpt lat="56.873951240575" lon="14.928463469106">
        <ele>138.4</ele>
        <time>2020-03-05T18:36:56Z</time>
      </trkpt>
      <trkpt lat="56.873928525626" lon="14.928516023619">
        <ele>137</ele>
        <time>2020-03-05T18:37:06Z</time>
      </trkpt>
      <trkpt lat="56.873873791819" lon="14.92855533473">
        <ele>136.4</ele>
        <time>2020-03-05T18:37:15Z</time>
      </trkpt>
      <trkpt lat="56.87382090203" lon="14.928563465173">
        <ele>136.2</ele>
        <time>2020-03-05T18:37:19Z</time>
      </trkpt>
      <trkpt lat="56.873755187934" lon="14.928547036649">
        <ele>136.8</ele>
        <time>2020-03-05T18:37:23Z</time>
      </trkpt>
      <trkpt lat="56.873694502978" lon="14.928580228973">
        <ele>137.4</ele>
        <time>2020-03-05T18:37:28Z</time>
      </trkpt>
      <trkpt lat="56.873672374762" lon="14.928569751598">
        <ele>137.2</ele>
        <time>2020-03-05T18:37:30Z</time>
      </trkpt>
      <trkpt lat="56.873636164954" lon="14.928578720231">
        <ele>137.4</ele>
        <time>2020-03-05T18:37:33Z</time>
      </trkpt>
      <trkpt lat="56.873589393952" lon="14.928559358042">
        <ele>138</ele>
        <time>2020-03-05T18:37:37Z</time>
      </trkpt>
      <trkpt lat="56.873580090043" lon="14.928563297535">
        <ele>138.2</ele>
        <time>2020-03-05T18:37:38Z</time>
      </trkpt>
      <trkpt lat="56.873568690659" lon="14.928579139326">
        <ele>138.8</ele>
        <time>2020-03-05T18:37:40Z</time>
      </trkpt>
      <trkpt lat="56.873561230768" lon="14.928589113787">
        <ele>139.2</ele>
        <time>2020-03-05T18:37:41Z</time>
      </trkpt>
      <trkpt lat="56.873541700941" lon="14.928607721605">
        <ele>140</ele>
        <time>2020-03-05T18:37:43Z</time>
      </trkpt>
      <trkpt lat="56.873531223566" lon="14.928611912555">
        <ele>140.6</ele>
        <time>2020-03-05T18:37:44Z</time>
      </trkpt>
      <trkpt lat="56.873414715156" lon="14.92856287844">
        <ele>140.6</ele>
        <time>2020-03-05T18:37:52Z</time>
      </trkpt>
      <trkpt lat="56.873320167324" lon="14.928595484031">
        <ele>140.8</ele>
        <time>2020-03-05T18:37:58Z</time>
      </trkpt>
      <trkpt lat="56.873299966945" lon="14.928788686826">
        <ele>140</ele>
        <time>2020-03-05T18:38:22Z</time>
      </trkpt>
      <trkpt lat="56.873310779596" lon="14.92883948114">
        <ele>139.6</ele>
        <time>2020-03-05T18:38:24Z</time>
      </trkpt>
      <trkpt lat="56.873332404898" lon="14.928913744774">
        <ele>138.8</ele>
        <time>2020-03-05T18:38:27Z</time>
      </trkpt>
      <trkpt lat="56.873350258345" lon="14.928954983722">
        <ele>138.4</ele>
        <time>2020-03-05T18:38:29Z</time>
      </trkpt>
      <trkpt lat="56.873364759032" lon="14.929105690284">
        <ele>139.8</ele>
        <time>2020-03-05T18:38:36Z</time>
      </trkpt>
      <trkpt lat="56.873363669385" lon="14.929146929232">
        <ele>141</ele>
        <time>2020-03-05T18:38:38Z</time>
      </trkpt>
      <trkpt lat="56.873356880046" lon="14.929192023854">
        <ele>141.8</ele>
        <time>2020-03-05T18:38:41Z</time>
      </trkpt>
      <trkpt lat="56.873361238634" lon="14.929206692179">
        <ele>142.2</ele>
        <time>2020-03-05T18:38:43Z</time>
      </trkpt>
      <trkpt lat="56.873547903547" lon="14.929232676069">
        <ele>142.6</ele>
        <time>2020-03-05T18:39:09Z</time>
      </trkpt>
      <trkpt lat="56.873628202149" lon="14.929332001584">
        <ele>141</ele>
        <time>2020-03-05T18:39:19Z</time>
      </trkpt>
      <trkpt lat="56.87365326403" lon="14.929375336007">
        <ele>140.8</ele>
        <time>2020-03-05T18:39:21Z</time>
      </trkpt>
      <trkpt lat="56.873666172156" lon="14.929402409544">
        <ele>140.6</ele>
        <time>2020-03-05T18:39:23Z</time>
      </trkpt>
      <trkpt lat="56.873673967323" lon="14.929392015988">
        <ele>140.4</ele>
        <time>2020-03-05T18:39:25Z</time>
      </trkpt>
      <trkpt lat="56.873657287342" lon="14.92939352473">
        <ele>140</ele>
        <time>2020-03-05T18:39:28Z</time>
      </trkpt>
      <trkpt lat="56.873566427546" lon="14.929473907151">
        <ele>139</ele>
        <time>2020-03-05T18:39:39Z</time>
      </trkpt>
      <trkpt lat="56.873511442282" lon="14.929502573249">
        <ele>138</ele>
        <time>2020-03-05T18:39:49Z</time>
      </trkpt>
      <trkpt lat="56.873507167513" lon="14.929505423095">
        <ele>138</ele>
        <time>2020-03-05T18:39:50Z</time>
      </trkpt>
      <trkpt lat="56.873417313545" lon="14.9296055868">
        <ele>136.8</ele>
        <time>2020-03-05T18:40:18Z</time>
      </trkpt>
      <trkpt lat="56.87338839599" lon="14.929648753585">
        <ele>135.8</ele>
        <time>2020-03-05T18:40:22Z</time>
      </trkpt>
      <trkpt lat="56.873195025557" lon="14.929741792675">
        <ele>135.2</ele>
        <time>2020-03-05T18:40:46Z</time>
      </trkpt>
      <trkpt lat="56.873160324491" lon="14.92976819566">
        <ele>135.2</ele>
        <time>2020-03-05T18:40:48Z</time>
      </trkpt>
      <trkpt lat="56.873133418592" lon="14.929801639441">
        <ele>135.2</ele>
        <time>2020-03-05T18:40:50Z</time>
      </trkpt>
      <trkpt lat="56.8730858094" lon="14.929791832618">
        <ele>135.4</ele>
        <time>2020-03-05T18:40:53Z</time>
      </trkpt>
      <trkpt lat="56.873070554342" lon="14.929758053561">
        <ele>136.2</ele>
        <time>2020-03-05T18:40:55Z</time>
      </trkpt>
      <trkpt lat="56.873059657872" lon="14.929726118522">
        <ele>136.8</ele>
        <time>2020-03-05T18:40:57Z</time>
      </trkpt>
      <trkpt lat="56.873055047827" lon="14.9297145515">
        <ele>137.2</ele>
        <time>2020-03-05T18:40:58Z</time>
      </trkpt>
      <trkpt lat="56.872971312646" lon="14.929755203715">
        <ele>137</ele>
        <time>2020-03-05T18:41:17Z</time>
      </trkpt>
      <trkpt lat="56.87293828796" lon="14.929744642521">
        <ele>137.2</ele>
        <time>2020-03-05T18:41:20Z</time>
      </trkpt>
      <trkpt lat="56.872918674314" lon="14.929730980024">
        <ele>137.6</ele>
        <time>2020-03-05T18:41:23Z</time>
      </trkpt>
      <trkpt lat="56.872824545577" lon="14.929793508998">
        <ele>137.2</ele>
        <time>2020-03-05T18:41:27Z</time>
      </trkpt>
      <trkpt lat="56.872745923355" lon="14.929920662421">
        <ele>136.4</ele>
        <time>2020-03-05T18:41:34Z</time>
      </trkpt>
      <trkpt lat="56.872735194523" lon="14.929990483648">
        <ele>136.6</ele>
        <time>2020-03-05T18:41:36Z</time>
      </trkpt>
      <trkpt lat="56.872662020536" lon="14.93004479836">
        <ele>136.2</ele>
        <time>2020-03-05T18:41:47Z</time>
      </trkpt>
      <trkpt lat="56.872635869008" lon="14.930067010395">
        <ele>136.2</ele>
        <time>2020-03-05T18:41:49Z</time>
      </trkpt>
      <trkpt lat="56.872627487108" lon="14.930067178033">
        <ele>136</ele>
        <time>2020-03-05T18:41:51Z</time>
      </trkpt>
      <trkpt lat="56.87259379187" lon="14.930052090613">
        <ele>135.6</ele>
        <time>2020-03-05T18:41:55Z</time>
      </trkpt>
      <trkpt lat="56.872575686966" lon="14.930036248822">
        <ele>135.6</ele>
        <time>2020-03-05T18:41:57Z</time>
      </trkpt>
      <trkpt lat="56.872461776945" lon="14.929932816176">
        <ele>137</ele>
        <time>2020-03-05T18:42:06Z</time>
      </trkpt>
      <trkpt lat="56.872461776945" lon="14.929932816176">
        <ele>137.2</ele>
        <time>2020-03-05T18:42:07Z</time>
      </trkpt>
      <trkpt lat="56.872409641527" lon="14.929872717953">
        <ele>138</ele>
        <time>2020-03-05T18:42:11Z</time>
      </trkpt>
      <trkpt lat="56.872406372586" lon="14.929861067112">
        <ele>138.2</ele>
        <time>2020-03-05T18:42:12Z</time>
      </trkpt>
      <trkpt lat="56.872381310705" lon="14.929823851476">
        <ele>139</ele>
        <time>2020-03-05T18:42:17Z</time>
      </trkpt>
      <trkpt lat="56.872302185569" lon="14.929508105303">
        <ele>139.6</ele>
        <time>2020-03-05T18:42:29Z</time>
      </trkpt>
      <trkpt lat="56.872258767327" lon="14.929404169743">
        <ele>139.8</ele>
        <time>2020-03-05T18:42:34Z</time>
      </trkpt>
      <trkpt lat="56.872171008834" lon="14.929311633567">
        <ele>139.8</ele>
        <time>2020-03-05T18:42:41Z</time>
      </trkpt>
      <trkpt lat="56.872122393814" lon="14.929208703835">
        <ele>139.8</ele>
        <time>2020-03-05T18:42:44Z</time>
      </trkpt>
      <trkpt lat="56.871952827977" lon="14.92908004167">
        <ele>139.8</ele>
        <time>2020-03-05T18:42:51Z</time>
      </trkpt>
      <trkpt lat="56.871826680382" lon="14.928996055032">
        <ele>140</ele>
        <time>2020-03-05T18:42:56Z</time>
      </trkpt>
      <trkpt lat="56.871638925822" lon="14.928929418927">
        <ele>140.8</ele>
        <time>2020-03-05T18:43:04Z</time>
      </trkpt>
      <trkpt lat="56.871617551977" lon="14.928896058965">
        <ele>141</ele>
        <time>2020-03-05T18:43:06Z</time>
      </trkpt>
      <trkpt lat="56.871568350224" lon="14.928842163348">
        <ele>141.6</ele>
        <time>2020-03-05T18:43:10Z</time>
      </trkpt>
      <trkpt lat="56.871551837881" lon="14.928811234137">
        <ele>142.2</ele>
        <time>2020-03-05T18:43:12Z</time>
      </trkpt>
      <trkpt lat="56.871516885358" lon="14.928741915824">
        <ele>143</ele>
        <time>2020-03-05T18:43:17Z</time>
      </trkpt>
      <trkpt lat="56.871493835133" lon="14.928703023808">
        <ele>143</ele>
        <time>2020-03-05T18:43:20Z</time>
      </trkpt>
      <trkpt lat="56.871484195948" lon="14.928683996895">
        <ele>143</ele>
        <time>2020-03-05T18:43:21Z</time>
      </trkpt>
      <trkpt lat="56.871422505164" lon="14.928616271143">
        <ele>143</ele>
        <time>2020-03-05T18:43:26Z</time>
      </trkpt>
      <trkpt lat="56.871402556242" lon="14.928596070764">
        <ele>143.2</ele>
        <time>2020-03-05T18:43:28Z</time>
      </trkpt>
      <trkpt lat="56.871394761075" lon="14.928594142927">
        <ele>143.2</ele>
        <time>2020-03-05T18:43:29Z</time>
      </trkpt>
      <trkpt lat="56.871387049727" lon="14.928588610873">
        <ele>143.2</ele>
        <time>2020-03-05T18:43:30Z</time>
      </trkpt>
      <trkpt lat="56.871324353115" lon="14.928531781591">
        <ele>143.8</ele>
        <time>2020-03-05T18:43:34Z</time>
      </trkpt>
      <trkpt lat="56.871288981497" lon="14.928495320326">
        <ele>144.6</ele>
        <time>2020-03-05T18:43:36Z</time>
      </trkpt>
      <trkpt lat="56.871259896304" lon="14.928455254844">
        <ele>145.6</ele>
        <time>2020-03-05T18:43:39Z</time>
      </trkpt>
      <trkpt lat="56.871239444468" lon="14.928432036981">
        <ele>146.6</ele>
        <time>2020-03-05T18:43:42Z</time>
      </trkpt>
      <trkpt lat="56.87123676226" lon="14.928419212674">
        <ele>146.8</ele>
        <time>2020-03-05T18:43:43Z</time>
      </trkpt>
      <trkpt lat="56.871218489718" lon="14.928414602629">
        <ele>147.4</ele>
        <time>2020-03-05T18:43:45Z</time>
      </trkpt>
      <trkpt lat="56.871186806136" lon="14.928428013669">
        <ele>148</ele>
        <time>2020-03-05T18:43:47Z</time>
      </trkpt>
      <trkpt lat="56.871155793106" lon="14.928429941506">
        <ele>148.4</ele>
        <time>2020-03-05T18:43:49Z</time>
      </trkpt>
      <trkpt lat="56.87113198851" lon="14.928385768893">
        <ele>148.8</ele>
        <time>2020-03-05T18:43:55Z</time>
      </trkpt>
      <trkpt lat="56.871108435371" lon="14.928380320658">
        <ele>149</ele>
        <time>2020-03-05T18:43:58Z</time>
      </trkpt>
      <trkpt lat="56.871100891661" lon="14.928364646505">
        <ele>149.2</ele>
        <time>2020-03-05T18:44:01Z</time>
      </trkpt>
      <trkpt lat="56.871066106776" lon="14.928311505259">
        <ele>149</ele>
        <time>2020-03-05T18:44:05Z</time>
      </trkpt>
      <trkpt lat="56.871007684933" lon="14.928281581876">
        <ele>148.8</ele>
        <time>2020-03-05T18:44:09Z</time>
      </trkpt>
      <trkpt lat="56.870987484554" lon="14.928293400355">
        <ele>148.2</ele>
        <time>2020-03-05T18:44:17Z</time>
      </trkpt>
      <trkpt lat="56.870985221441" lon="14.928299602961">
        <ele>148</ele>
        <time>2020-03-05T18:44:19Z</time>
      </trkpt>
      <trkpt lat="56.870969882564" lon="14.928106148709">
        <ele>149</ele>
        <time>2020-03-05T18:44:35Z</time>
      </trkpt>
      <trkpt lat="56.870982036319" lon="14.927998525113">
        <ele>150</ele>
        <time>2020-03-05T18:44:40Z</time>
      </trkpt>
      <trkpt lat="56.870989328572" lon="14.927907497679">
        <ele>150.4</ele>
        <time>2020-03-05T18:44:46Z</time>
      </trkpt>
      <trkpt lat="56.871016066833" lon="14.92779677278">
        <ele>150.8</ele>
        <time>2020-03-05T18:44:51Z</time>
      </trkpt>
      <trkpt lat="56.871031992443" lon="14.927740111136">
        <ele>151.2</ele>
        <time>2020-03-05T18:44:53Z</time>
      </trkpt>
      <trkpt lat="56.871058898342" lon="14.927684120044">
        <ele>152.4</ele>
        <time>2020-03-05T18:44:55Z</time>
      </trkpt>
      <trkpt lat="56.871068202251" lon="14.92766601514">
        <ele>152.6</ele>
        <time>2020-03-05T18:44:56Z</time>
      </trkpt>
      <trkpt lat="56.87108756444" lon="14.927579011018">
        <ele>153.4</ele>
        <time>2020-03-05T18:45:00Z</time>
      </trkpt>
      <trkpt lat="56.871103406231" lon="14.927545734875">
        <ele>154</ele>
        <time>2020-03-05T18:45:02Z</time>
      </trkpt>
      <trkpt lat="56.871103657688" lon="14.927534670767">
        <ele>154.4</ele>
        <time>2020-03-05T18:45:03Z</time>
      </trkpt>
      <trkpt lat="56.87109762272" lon="14.927474824001">
        <ele>155.6</ele>
        <time>2020-03-05T18:45:06Z</time>
      </trkpt>
      <trkpt lat="56.871098963824" lon="14.927418497633">
        <ele>156.6</ele>
        <time>2020-03-05T18:45:08Z</time>
      </trkpt>
      <trkpt lat="56.871103322412" lon="14.927401482376">
        <ele>157</ele>
        <time>2020-03-05T18:45:09Z</time>
      </trkpt>
      <trkpt lat="56.871181274082" lon="14.927262426655">
        <ele>158</ele>
        <time>2020-03-05T18:45:41Z</time>
      </trkpt>
      <trkpt lat="56.871206419782" lon="14.927242980647">
        <ele>158</ele>
        <time>2020-03-05T18:45:42Z</time>
      </trkpt>
      <trkpt lat="56.871280096683" lon="14.927157317629">
        <ele>157.2</ele>
        <time>2020-03-05T18:45:49Z</time>
      </trkpt>
      <trkpt lat="56.871294429732" lon="14.92716477752">
        <ele>156.8</ele>
        <time>2020-03-05T18:45:50Z</time>
      </trkpt>
      <trkpt lat="56.871359305638" lon="14.927242645371">
        <ele>156.2</ele>
        <time>2020-03-05T18:45:54Z</time>
      </trkpt>
      <trkpt lat="56.871362909855" lon="14.927255637316">
        <ele>155.6</ele>
        <time>2020-03-05T18:45:56Z</time>
      </trkpt>
      <trkpt lat="56.871407920658" lon="14.927253290384">
        <ele>154.8</ele>
        <time>2020-03-05T18:46:02Z</time>
      </trkpt>
      <trkpt lat="56.871419403861" lon="14.927270138003">
        <ele>154.6</ele>
        <time>2020-03-05T18:46:04Z</time>
      </trkpt>
      <trkpt lat="56.871424852096" lon="14.927306934544">
        <ele>154</ele>
        <time>2020-03-05T18:46:06Z</time>
      </trkpt>
      <trkpt lat="56.871436419118" lon="14.92732571">
        <ele>153.8</ele>
        <time>2020-03-05T18:46:08Z</time>
      </trkpt>
      <trkpt lat="56.871422924259" lon="14.927339456316">
        <ele>153.4</ele>
        <time>2020-03-05T18:46:10Z</time>
      </trkpt>
      <trkpt lat="56.871416302558" lon="14.927348760225">
        <ele>153.2</ele>
        <time>2020-03-05T18:46:12Z</time>
      </trkpt>
      <trkpt lat="56.871413368893" lon="14.927340043049">
        <ele>152.4</ele>
        <time>2020-03-05T18:46:14Z</time>
      </trkpt>
      <trkpt lat="56.87136584352" lon="14.927338785764">
        <ele>152</ele>
        <time>2020-03-05T18:46:20Z</time>
      </trkpt>
      <trkpt lat="56.871308511324" lon="14.927331996425">
        <ele>153.8</ele>
        <time>2020-03-05T18:46:25Z</time>
      </trkpt>
      <trkpt lat="56.87125436425" lon="14.927330990597">
        <ele>154.8</ele>
        <time>2020-03-05T18:46:30Z</time>
      </trkpt>
      <trkpt lat="56.871239612106" lon="14.927336857927">
        <ele>154.8</ele>
        <time>2020-03-05T18:46:31Z</time>
      </trkpt>
      <trkpt lat="56.871199462805" lon="14.927223869915">
        <ele>156</ele>
        <time>2020-03-05T18:46:37Z</time>
      </trkpt>
      <trkpt lat="56.871198624615" lon="14.92720584883">
        <ele>156.4</ele>
        <time>2020-03-05T18:46:38Z</time>
      </trkpt>
      <trkpt lat="56.871181693177" lon="14.927165196615">
        <ele>156.8</ele>
        <time>2020-03-05T18:46:41Z</time>
      </trkpt>
      <trkpt lat="56.871160738427" lon="14.927159580742">
        <ele>157.2</ele>
        <time>2020-03-05T18:46:44Z</time>
      </trkpt>
      <trkpt lat="56.871149339043" lon="14.92716561571">
        <ele>157.2</ele>
        <time>2020-03-05T18:46:45Z</time>
      </trkpt>
      <trkpt lat="56.871133916347" lon="14.927166621538">
        <ele>157.2</ele>
        <time>2020-03-05T18:46:46Z</time>
      </trkpt>
      <trkpt lat="56.871100807842" lon="14.927181625139">
        <ele>157.4</ele>
        <time>2020-03-05T18:46:48Z</time>
      </trkpt>
      <trkpt lat="56.871067112604" lon="14.927183385338">
        <ele>157.2</ele>
        <time>2020-03-05T18:46:50Z</time>
      </trkpt>
      <trkpt lat="56.870958399361" lon="14.927336187375">
        <ele>156.4</ele>
        <time>2020-03-05T18:47:05Z</time>
      </trkpt>
      <trkpt lat="56.870928475978" lon="14.927391005001">
        <ele>156</ele>
        <time>2020-03-05T18:47:07Z</time>
      </trkpt>
      <trkpt lat="56.870911712178" lon="14.927459233667">
        <ele>155.2</ele>
        <time>2020-03-05T18:47:10Z</time>
      </trkpt>
      <trkpt lat="56.870902659726" lon="14.927471471241">
        <ele>154.8</ele>
        <time>2020-03-05T18:47:11Z</time>
      </trkpt>
      <trkpt lat="56.870869551221" lon="14.927522936107">
        <ele>153.6</ele>
        <time>2020-03-05T18:47:14Z</time>
      </trkpt>
      <trkpt lat="56.870861504597" lon="14.927538442622">
        <ele>153.4</ele>
        <time>2020-03-05T18:47:15Z</time>
      </trkpt>
      <trkpt lat="56.870828144635" lon="14.927594433714">
        <ele>152.6</ele>
        <time>2020-03-05T18:47:19Z</time>
      </trkpt>
      <trkpt lat="56.870801406374" lon="14.927644054562">
        <ele>152.2</ele>
        <time>2020-03-05T18:47:22Z</time>
      </trkpt>
      <trkpt lat="56.870793695026" lon="14.927683030397">
        <ele>152</ele>
        <time>2020-03-05T18:47:26Z</time>
      </trkpt>
      <trkpt lat="56.870778356149" lon="14.927721168042">
        <ele>152</ele>
        <time>2020-03-05T18:47:28Z</time>
      </trkpt>
      <trkpt lat="56.870780032529" lon="14.927761401162">
        <ele>151.8</ele>
        <time>2020-03-05T18:47:30Z</time>
      </trkpt>
      <trkpt lat="56.870790677542" lon="14.927876484649">
        <ele>152</ele>
        <time>2020-03-05T18:47:37Z</time>
      </trkpt>
      <trkpt lat="56.870764693652" lon="14.92798871829">
        <ele>152.4</ele>
        <time>2020-03-05T18:47:42Z</time>
      </trkpt>
      <trkpt lat="56.870718677021" lon="14.928019982777">
        <ele>152.6</ele>
        <time>2020-03-05T18:47:46Z</time>
      </trkpt>
      <trkpt lat="56.870690430018" lon="14.928044709382">
        <ele>152.8</ele>
        <time>2020-03-05T18:47:49Z</time>
      </trkpt>
      <trkpt lat="56.87069110057" lon="14.928088798176">
        <ele>152.8</ele>
        <time>2020-03-05T18:47:51Z</time>
      </trkpt>
      <trkpt lat="56.870688166905" lon="14.928144453992">
        <ele>151.8</ele>
        <time>2020-03-05T18:47:57Z</time>
      </trkpt>
      <trkpt lat="56.870669726725" lon="14.928165744018">
        <ele>151.4</ele>
        <time>2020-03-05T18:47:58Z</time>
      </trkpt>
      <trkpt lat="56.870655980409" lon="14.928163648543">
        <ele>151</ele>
        <time>2020-03-05T18:48:00Z</time>
      </trkpt>
      <trkpt lat="56.870617675126" lon="14.928155601919">
        <ele>150.6</ele>
        <time>2020-03-05T18:48:04Z</time>
      </trkpt>
      <trkpt lat="56.870599570222" lon="14.928183429827">
        <ele>150</ele>
        <time>2020-03-05T18:48:07Z</time>
      </trkpt>
      <trkpt lat="56.870587667924" lon="14.928194326297">
        <ele>148.8</ele>
        <time>2020-03-05T18:48:09Z</time>
      </trkpt>
      <trkpt lat="56.870561600215" lon="14.92822173511">
        <ele>148.4</ele>
        <time>2020-03-05T18:48:10Z</time>
      </trkpt>
      <trkpt lat="56.870522037647" lon="14.928290299052">
        <ele>147.8</ele>
        <time>2020-03-05T18:48:14Z</time>
      </trkpt>
      <trkpt lat="56.870513069014" lon="14.928315863847">
        <ele>147.8</ele>
        <time>2020-03-05T18:48:15Z</time>
      </trkpt>
      <trkpt lat="56.870555816704" lon="14.928319216607">
        <ele>147.6</ele>
        <time>2020-03-05T18:48:23Z</time>
      </trkpt>
      <trkpt lat="56.870544165863" lon="14.928344027031">
        <ele>147.4</ele>
        <time>2020-03-05T18:48:30Z</time>
      </trkpt>
      <trkpt lat="56.870545339329" lon="14.928365484695">
        <ele>147.4</ele>
        <time>2020-03-05T18:48:32Z</time>
      </trkpt>
      <trkpt lat="56.870538885266" lon="14.928438910139">
        <ele>147.6</ele>
        <time>2020-03-05T18:48:36Z</time>
      </trkpt>
      <trkpt lat="56.870510638263" lon="14.928525662804">
        <ele>147.8</ele>
        <time>2020-03-05T18:48:40Z</time>
      </trkpt>
      <trkpt lat="56.870470321324" lon="14.928672932787">
        <ele>147</ele>
        <time>2020-03-05T18:48:44Z</time>
      </trkpt>
      <trkpt lat="56.870459424854" lon="14.928694977184">
        <ele>146.6</ele>
        <time>2020-03-05T18:48:45Z</time>
      </trkpt>
      <trkpt lat="56.87043629081" lon="14.928732947191">
        <ele>145.6</ele>
        <time>2020-03-05T18:48:48Z</time>
      </trkpt>
      <trkpt lat="56.870433860059" lon="14.928785920799">
        <ele>145.2</ele>
        <time>2020-03-05T18:48:50Z</time>
      </trkpt>
      <trkpt lat="56.870423215046" lon="14.928832607982">
        <ele>144.8</ele>
        <time>2020-03-05T18:48:52Z</time>
      </trkpt>
      <trkpt lat="56.870412737671" lon="14.928919444466">
        <ele>144.4</ele>
        <time>2020-03-05T18:48:56Z</time>
      </trkpt>
      <trkpt lat="56.870405780694" lon="14.928947272374">
        <ele>144.4</ele>
        <time>2020-03-05T18:48:58Z</time>
      </trkpt>
      <trkpt lat="56.870402511753" lon="14.928955318998">
        <ele>144.4</ele>
        <time>2020-03-05T18:49:00Z</time>
      </trkpt>
      <trkpt lat="56.870404774866" lon="14.92895263679">
        <ele>144.4</ele>
        <time>2020-03-05T18:49:03Z</time>
      </trkpt>
      <trkpt lat="56.87040611597" lon="14.929015836316">
        <ele>144.4</ele>
        <time>2020-03-05T18:49:05Z</time>
      </trkpt>
      <trkpt lat="56.870412067119" lon="14.92913536221">
        <ele>144.4</ele>
        <time>2020-03-05T18:49:09Z</time>
      </trkpt>
      <trkpt lat="56.870395470957" lon="14.929239549227">
        <ele>143.4</ele>
        <time>2020-03-05T18:49:13Z</time>
      </trkpt>
      <trkpt lat="56.870388094885" lon="14.929263856737">
        <ele>143.2</ele>
        <time>2020-03-05T18:49:15Z</time>
      </trkpt>
      <trkpt lat="56.870321123504" lon="14.929261761262">
        <ele>143</ele>
        <time>2020-03-05T18:49:21Z</time>
      </trkpt>
      <trkpt lat="56.870247027508" lon="14.929227730748">
        <ele>144.4</ele>
        <time>2020-03-05T18:49:25Z</time>
      </trkpt>
      <trkpt lat="56.870205034189" lon="14.929232005517">
        <ele>145.2</ele>
        <time>2020-03-05T18:49:27Z</time>
      </trkpt>
      <trkpt lat="56.870186007276" lon="14.929223623617">
        <ele>145.4</ele>
        <time>2020-03-05T18:49:29Z</time>
      </trkpt>
      <trkpt lat="56.870180391403" lon="14.929209039111">
        <ele>145.6</ele>
        <time>2020-03-05T18:49:30Z</time>
      </trkpt>
      <trkpt lat="56.870129345632" lon="14.929096637832">
        <ele>145.4</ele>
        <time>2020-03-05T18:49:35Z</time>
      </trkpt>
      <trkpt lat="56.870100930991" lon="14.929049196278">
        <ele>145.4</ele>
        <time>2020-03-05T18:49:39Z</time>
      </trkpt>
      <trkpt lat="56.870092381453" lon="14.929034947048">
        <ele>145.4</ele>
        <time>2020-03-05T18:49:40Z</time>
      </trkpt>
      <trkpt lat="56.870033456696" lon="14.92894593127">
        <ele>145.6</ele>
        <time>2020-03-05T18:49:46Z</time>
      </trkpt>
      <trkpt lat="56.87000797572" lon="14.928912571308">
        <ele>145.8</ele>
        <time>2020-03-05T18:49:48Z</time>
      </trkpt>
      <trkpt lat="56.869965479487" lon="14.928885162495">
        <ele>145.8</ele>
        <time>2020-03-05T18:49:52Z</time>
      </trkpt>
      <trkpt lat="56.869919714313" lon="14.928851131981">
        <ele>146</ele>
        <time>2020-03-05T18:49:56Z</time>
      </trkpt>
      <trkpt lat="56.869896328812" lon="14.928855071474">
        <ele>146.2</ele>
        <time>2020-03-05T18:49:58Z</time>
      </trkpt>
      <trkpt lat="56.869882163401" lon="14.928855742026">
        <ele>146.4</ele>
        <time>2020-03-05T18:50:00Z</time>
      </trkpt>
      <trkpt lat="56.869852156199" lon="14.928860687347">
        <ele>146.6</ele>
        <time>2020-03-05T18:50:05Z</time>
      </trkpt>
      <trkpt lat="56.869803876455" lon="14.928826489195">
        <ele>147.2</ele>
        <time>2020-03-05T18:50:15Z</time>
      </trkpt>
      <trkpt lat="56.869779820402" lon="14.928833865267">
        <ele>147.8</ele>
        <time>2020-03-05T18:50:17Z</time>
      </trkpt>
      <trkpt lat="56.869749226467" lon="14.928841911891">
        <ele>148</ele>
        <time>2020-03-05T18:50:20Z</time>
      </trkpt>
      <trkpt lat="56.869689798796" lon="14.928858172777">
        <ele>148.2</ele>
        <time>2020-03-05T18:50:23Z</time>
      </trkpt>
      <trkpt lat="56.869507911566" lon="14.928887090332">
        <ele>147.4</ele>
        <time>2020-03-05T18:50:33Z</time>
      </trkpt>
      <trkpt lat="56.869483939332" lon="14.928901842476">
        <ele>147.4</ele>
        <time>2020-03-05T18:50:35Z</time>
      </trkpt>
      <trkpt lat="56.869420991263" lon="14.928989014236">
        <ele>146.4</ele>
        <time>2020-03-05T18:50:40Z</time>
      </trkpt>
      <trkpt lat="56.869411687354" lon="14.929024972587">
        <ele>146</ele>
        <time>2020-03-05T18:50:42Z</time>
      </trkpt>
      <trkpt lat="56.869414285743" lon="14.929071827408">
        <ele>146</ele>
        <time>2020-03-05T18:50:44Z</time>
      </trkpt>
      <trkpt lat="56.86945057937" lon="14.929104684456">
        <ele>147.4</ele>
        <time>2020-03-05T18:50:49Z</time>
      </trkpt>
      <trkpt lat="56.869455357053" lon="14.92912698031">
        <ele>147.6</ele>
        <time>2020-03-05T18:50:50Z</time>
      </trkpt>
      <trkpt lat="56.869457117252" lon="14.92912530393">
        <ele>147.8</ele>
        <time>2020-03-05T18:50:51Z</time>
      </trkpt>
      <trkpt lat="56.869451836655" lon="14.929135613667">
        <ele>148.8</ele>
        <time>2020-03-05T18:50:54Z</time>
      </trkpt>
      <trkpt lat="56.869442868022" lon="14.929133182916">
        <ele>149.2</ele>
        <time>2020-03-05T18:50:56Z</time>
      </trkpt>
      <trkpt lat="56.869434905217" lon="14.929122621722">
        <ele>149.6</ele>
        <time>2020-03-05T18:50:58Z</time>
      </trkpt>
      <trkpt lat="56.869437755063" lon="14.929128991966">
        <ele>149.8</ele>
        <time>2020-03-05T18:50:59Z</time>
      </trkpt>
      <trkpt lat="56.869451249922" lon="14.929135278391">
        <ele>150.8</ele>
        <time>2020-03-05T18:51:04Z</time>
      </trkpt>
      <trkpt lat="56.869486370083" lon="14.929075934539">
        <ele>152</ele>
        <time>2020-03-05T18:51:13Z</time>
      </trkpt>
      <trkpt lat="56.869468851912" lon="14.929078784385">
        <ele>153</ele>
        <time>2020-03-05T18:51:18Z</time>
      </trkpt>
      <trkpt lat="56.869516293466" lon="14.929070402485">
        <ele>153.8</ele>
        <time>2020-03-05T18:51:23Z</time>
      </trkpt>
      <trkpt lat="56.869527776669" lon="14.929066882087">
        <ele>154</ele>
        <time>2020-03-05T18:51:24Z</time>
      </trkpt>
      <trkpt lat="56.869561555726" lon="14.929063361689">
        <ele>154.8</ele>
        <time>2020-03-05T18:51:28Z</time>
      </trkpt>
      <trkpt lat="56.869555017844" lon="14.929082723878">
        <ele>154.6</ele>
        <time>2020-03-05T18:51:32Z</time>
      </trkpt>
      <trkpt lat="56.869563567382" lon="14.929129913975">
        <ele>153.8</ele>
        <time>2020-03-05T18:51:36Z</time>
      </trkpt>
      <trkpt lat="56.869559627889" lon="14.929172913122">
        <ele>152.8</ele>
        <time>2020-03-05T18:51:39Z</time>
      </trkpt>
      <trkpt lat="56.869564992305" lon="14.929186743257">
        <ele>152.2</ele>
        <time>2020-03-05T18:51:41Z</time>
      </trkpt>
      <trkpt lat="56.869569015617" lon="14.929200154297">
        <ele>152.2</ele>
        <time>2020-03-05T18:51:43Z</time>
      </trkpt>
      <trkpt lat="56.869529955963" lon="14.929258659959">
        <ele>152</ele>
        <time>2020-03-05T18:51:47Z</time>
      </trkpt>
      <trkpt lat="56.869498859114" lon="14.929312723214">
        <ele>151.6</ele>
        <time>2020-03-05T18:51:51Z</time>
      </trkpt>
      <trkpt lat="56.869487962644" lon="14.929323284408">
        <ele>150.8</ele>
        <time>2020-03-05T18:51:55Z</time>
      </trkpt>
      <trkpt lat="56.86948662154" lon="14.929325296064">
        <ele>150.6</ele>
        <time>2020-03-05T18:51:56Z</time>
      </trkpt>
      <trkpt lat="56.869488968472" lon="14.929333091231">
        <ele>149</ele>
        <time>2020-03-05T18:51:59Z</time>
      </trkpt>
      <trkpt lat="56.869471785577" lon="14.929347340461">
        <ele>148</ele>
        <time>2020-03-05T18:52:04Z</time>
      </trkpt>
      <trkpt lat="56.869426355679" lon="14.929307107341">
        <ele>147.6</ele>
        <time>2020-03-05T18:52:19Z</time>
      </trkpt>
      <trkpt lat="56.869411771173" lon="14.929272573913">
        <ele>147.4</ele>
        <time>2020-03-05T18:52:21Z</time>
      </trkpt>
      <trkpt lat="56.869397270486" lon="14.929246506204">
        <ele>147.2</ele>
        <time>2020-03-05T18:52:23Z</time>
      </trkpt>
      <trkpt lat="56.869379919953" lon="14.929215576993">
        <ele>146.8</ele>
        <time>2020-03-05T18:52:25Z</time>
      </trkpt>
      <trkpt lat="56.869379249401" lon="14.929191018026">
        <ele>146.4</ele>
        <time>2020-03-05T18:52:27Z</time>
      </trkpt>
      <trkpt lat="56.869345637982" lon="14.929170482371">
        <ele>146</ele>
        <time>2020-03-05T18:52:30Z</time>
      </trkpt>
      <trkpt lat="56.869312948572" lon="14.929072665598">
        <ele>145.8</ele>
        <time>2020-03-05T18:52:35Z</time>
      </trkpt>
      <trkpt lat="56.869301716826" lon="14.929047268441">
        <ele>145.8</ele>
        <time>2020-03-05T18:52:36Z</time>
      </trkpt>
      <trkpt lat="56.869289227795" lon="14.929024637311">
        <ele>145.6</ele>
        <time>2020-03-05T18:52:37Z</time>
      </trkpt>
      <trkpt lat="56.869215718532" lon="14.928800253848">
        <ele>146.2</ele>
        <time>2020-03-05T18:52:49Z</time>
      </trkpt>
      <trkpt lat="56.869172887023" lon="14.92871039988">
        <ele>146</ele>
        <time>2020-03-05T18:52:52Z</time>
      </trkpt>
      <trkpt lat="56.869161822915" lon="14.928658013005">
        <ele>146.2</ele>
        <time>2020-03-05T18:52:54Z</time>
      </trkpt>
      <trkpt lat="56.869164421304" lon="14.928626497061">
        <ele>146.8</ele>
        <time>2020-03-05T18:52:55Z</time>
      </trkpt>
      <trkpt lat="56.869176407421" lon="14.928569500141">
        <ele>148</ele>
        <time>2020-03-05T18:52:57Z</time>
      </trkpt>
      <trkpt lat="56.869181268923" lon="14.928541504595">
        <ele>148.2</ele>
        <time>2020-03-05T18:52:58Z</time>
      </trkpt>
      <trkpt lat="56.869193925592" lon="14.928430528239">
        <ele>149.4</ele>
        <time>2020-03-05T18:53:02Z</time>
      </trkpt>
      <trkpt lat="56.869197278352" lon="14.928409573489">
        <ele>149.6</ele>
        <time>2020-03-05T18:53:03Z</time>
      </trkpt>
      <trkpt lat="56.869209348288" lon="14.928338075882">
        <ele>150.2</ele>
        <time>2020-03-05T18:53:06Z</time>
      </trkpt>
      <trkpt lat="56.86925444291" lon="14.928270098673">
        <ele>150.6</ele>
        <time>2020-03-05T18:53:10Z</time>
      </trkpt>
      <trkpt lat="56.869267351036" lon="14.928255011253">
        <ele>150.8</ele>
        <time>2020-03-05T18:53:11Z</time>
      </trkpt>
      <trkpt lat="56.869314960228" lon="14.928218214712">
        <ele>151.2</ele>
        <time>2020-03-05T18:53:14Z</time>
      </trkpt>
      <trkpt lat="56.869340441204" lon="14.928191811727">
        <ele>151.6</ele>
        <time>2020-03-05T18:53:16Z</time>
      </trkpt>
      <trkpt lat="56.869348823104" lon="14.928174545013">
        <ele>151.6</ele>
        <time>2020-03-05T18:53:17Z</time>
      </trkpt>
      <trkpt lat="56.869361312135" lon="14.928125007984">
        <ele>151.6</ele>
        <time>2020-03-05T18:53:20Z</time>
      </trkpt>
      <trkpt lat="56.869324096499" lon="14.927920070529">
        <ele>152.6</ele>
        <time>2020-03-05T18:53:56Z</time>
      </trkpt>
      <trkpt lat="56.869320408463" lon="14.927909509335">
        <ele>152.8</ele>
        <time>2020-03-05T18:53:57Z</time>
      </trkpt>
      <trkpt lat="56.869298699342" lon="14.927882435798">
        <ele>153</ele>
        <time>2020-03-05T18:54:00Z</time>
      </trkpt>
      <trkpt lat="56.869129384962" lon="14.927754360366">
        <ele>153.4</ele>
        <time>2020-03-05T18:54:11Z</time>
      </trkpt>
      <trkpt lat="56.868965015903" lon="14.927733154159">
        <ele>152.4</ele>
        <time>2020-03-05T18:54:21Z</time>
      </trkpt>
      <trkpt lat="56.868915311236" lon="14.927719156386">
        <ele>152.2</ele>
        <time>2020-03-05T18:54:24Z</time>
      </trkpt>
      <trkpt lat="56.86872805959" lon="14.927756791117">
        <ele>152.2</ele>
        <time>2020-03-05T18:54:31Z</time>
      </trkpt>
      <trkpt lat="56.868534353881" lon="14.927854691709">
        <ele>152.2</ele>
        <time>2020-03-05T18:54:40Z</time>
      </trkpt>
      <trkpt lat="56.868527229266" lon="14.927852512415">
        <ele>152.4</ele>
        <time>2020-03-05T18:54:41Z</time>
      </trkpt>
      <trkpt lat="56.868489510716" lon="14.927830132742">
        <ele>152.4</ele>
        <time>2020-03-05T18:54:43Z</time>
      </trkpt>
      <trkpt lat="56.868348108063" lon="14.927828875457">
        <ele>151.8</ele>
        <time>2020-03-05T18:54:53Z</time>
      </trkpt>
      <trkpt lat="56.868332769186" lon="14.92781772753">
        <ele>151.8</ele>
        <time>2020-03-05T18:54:56Z</time>
      </trkpt>
      <trkpt lat="56.868281136682" lon="14.927820493557">
        <ele>151.8</ele>
        <time>2020-03-05T18:55:01Z</time>
      </trkpt>
      <trkpt lat="56.868210812541" lon="14.927871120233">
        <ele>151.8</ele>
        <time>2020-03-05T18:55:05Z</time>
      </trkpt>
      <trkpt lat="56.868166388471" lon="14.927897271761">
        <ele>151.6</ele>
        <time>2020-03-05T18:55:07Z</time>
      </trkpt>
      <trkpt lat="56.868134118156" lon="14.927930547904">
        <ele>150.8</ele>
        <time>2020-03-05T18:55:11Z</time>
      </trkpt>
      <trkpt lat="56.868117521994" lon="14.927925602583">
        <ele>150.6</ele>
        <time>2020-03-05T18:55:14Z</time>
      </trkpt>
      <trkpt lat="56.868090113181" lon="14.92795938164">
        <ele>150.6</ele>
        <time>2020-03-05T18:55:16Z</time>
      </trkpt>
      <trkpt lat="56.868079384349" lon="14.927990059394">
        <ele>150</ele>
        <time>2020-03-05T18:55:18Z</time>
      </trkpt>
      <trkpt lat="56.868075696313" lon="14.928001794054">
        <ele>149.4</ele>
        <time>2020-03-05T18:55:20Z</time>
      </trkpt>
      <trkpt lat="56.868040492333" lon="14.928156775385">
        <ele>148.8</ele>
        <time>2020-03-05T18:55:26Z</time>
      </trkpt>
      <trkpt lat="56.868030182596" lon="14.928169432054">
        <ele>148.2</ele>
        <time>2020-03-05T18:55:28Z</time>
      </trkpt>
      <trkpt lat="56.867985171793" lon="14.928215951599">
        <ele>147.6</ele>
        <time>2020-03-05T18:55:32Z</time>
      </trkpt>
      <trkpt lat="56.86793597004" lon="14.928233721227">
        <ele>147.6</ele>
        <time>2020-03-05T18:55:35Z</time>
      </trkpt>
      <trkpt lat="56.867868495745" lon="14.928409070575">
        <ele>147.6</ele>
        <time>2020-03-05T18:55:43Z</time>
      </trkpt>
      <trkpt lat="56.867846618986" lon="14.928466989504">
        <ele>147.6</ele>
        <time>2020-03-05T18:55:44Z</time>
      </trkpt>
      <trkpt lat="56.86783454905" lon="14.928481741648">
        <ele>147.4</ele>
        <time>2020-03-05T18:55:46Z</time>
      </trkpt>
      <trkpt lat="56.867814935404" lon="14.928474784671">
        <ele>147.2</ele>
        <time>2020-03-05T18:55:49Z</time>
      </trkpt>
      <trkpt lat="56.867729607662" lon="14.928305805567">
        <ele>147.2</ele>
        <time>2020-03-05T18:56:15Z</time>
      </trkpt>
      <trkpt lat="56.867721141943" lon="14.928281581876">
        <ele>147.2</ele>
        <time>2020-03-05T18:56:16Z</time>
      </trkpt>
      <trkpt lat="56.867675628226" lon="14.928012690524">
        <ele>148.2</ele>
        <time>2020-03-05T18:56:26Z</time>
      </trkpt>
      <trkpt lat="56.867665569946" lon="14.927991065222">
        <ele>148.6</ele>
        <time>2020-03-05T18:56:27Z</time>
      </trkpt>
      <trkpt lat="56.867644782834" lon="14.927916298674">
        <ele>149.2</ele>
        <time>2020-03-05T18:56:29Z</time>
      </trkpt>
      <trkpt lat="56.867641346255" lon="14.92786969531">
        <ele>149.8</ele>
        <time>2020-03-05T18:56:30Z</time>
      </trkpt>
      <trkpt lat="56.867622403161" lon="14.927748073941">
        <ele>151</ele>
        <time>2020-03-05T18:56:33Z</time>
      </trkpt>
      <trkpt lat="56.867602286601" lon="14.927692921039">
        <ele>151.2</ele>
        <time>2020-03-05T18:56:35Z</time>
      </trkpt>
      <trkpt lat="56.867470523133" lon="14.927446493179">
        <ele>151.8</ele>
        <time>2020-03-05T18:56:47Z</time>
      </trkpt>
      <trkpt lat="56.867453088781" lon="14.927423526773">
        <ele>152</ele>
        <time>2020-03-05T18:56:48Z</time>
      </trkpt>
      <trkpt lat="56.867340519864" lon="14.927303246508">
        <ele>152.4</ele>
        <time>2020-03-05T18:56:57Z</time>
      </trkpt>
      <trkpt lat="56.867296598708" lon="14.927285560699">
        <ele>152.6</ele>
        <time>2020-03-05T18:57:01Z</time>
      </trkpt>
      <trkpt lat="56.867256700864" lon="14.927232335634">
        <ele>152.8</ele>
        <time>2020-03-05T18:57:06Z</time>
      </trkpt>
      <trkpt lat="56.867227783309" lon="14.927211129427">
        <ele>153</ele>
        <time>2020-03-05T18:57:08Z</time>
      </trkpt>
      <trkpt lat="56.867161733937" lon="14.927188414478">
        <ele>153.8</ele>
        <time>2020-03-05T18:57:12Z</time>
      </trkpt>
      <trkpt lat="56.867147736164" lon="14.927177937103">
        <ele>154.2</ele>
        <time>2020-03-05T18:57:13Z</time>
      </trkpt>
      <trkpt lat="56.867066180277" lon="14.927127729522">
        <ele>155.4</ele>
        <time>2020-03-05T18:57:17Z</time>
      </trkpt>
      <trkpt lat="56.867005495321" lon="14.927051454232">
        <ele>156.4</ele>
        <time>2020-03-05T18:57:21Z</time>
      </trkpt>
      <trkpt lat="56.866962663812" lon="14.92705246006">
        <ele>157</ele>
        <time>2020-03-05T18:57:24Z</time>
      </trkpt>
      <trkpt lat="56.866915389896" lon="14.927019351555">
        <ele>157.4</ele>
        <time>2020-03-05T18:57:27Z</time>
      </trkpt>
      <trkpt lat="56.866894770422" lon="14.927001414289">
        <ele>157.6</ele>
        <time>2020-03-05T18:57:29Z</time>
      </trkpt>
      <trkpt lat="56.866875240595" lon="14.927005186144">
        <ele>157.6</ele>
        <time>2020-03-05T18:57:31Z</time>
      </trkpt>
      <trkpt lat="56.866860069356" lon="14.926979705168">
        <ele>157.8</ele>
        <time>2020-03-05T18:57:34Z</time>
      </trkpt>
      <trkpt lat="56.866836013303" lon="14.926941986618">
        <ele>157.8</ele>
        <time>2020-03-05T18:57:37Z</time>
      </trkpt>
      <trkpt lat="56.866725707499" lon="14.926950368518">
        <ele>157.8</ele>
        <time>2020-03-05T18:57:49Z</time>
      </trkpt>
      <trkpt lat="56.866707099681" lon="14.926901418222">
        <ele>157.8</ele>
        <time>2020-03-05T18:57:51Z</time>
      </trkpt>
      <trkpt lat="56.866609282908" lon="14.926609392826">
        <ele>156.4</ele>
        <time>2020-03-05T18:58:01Z</time>
      </trkpt>
      <trkpt lat="56.866599224628" lon="14.92659145556">
        <ele>156.2</ele>
        <time>2020-03-05T18:58:03Z</time>
      </trkpt>
      <trkpt lat="56.86656050025" lon="14.926522304885">
        <ele>155.4</ele>
        <time>2020-03-05T18:58:10Z</time>
      </trkpt>
      <trkpt lat="56.866436699587" lon="14.926534961554">
        <ele>156</ele>
        <time>2020-03-05T18:58:21Z</time>
      </trkpt>
      <trkpt lat="56.866389677128" lon="14.926530770604">
        <ele>156.4</ele>
        <time>2020-03-05T18:58:24Z</time>
      </trkpt>
      <trkpt lat="56.866303008282" lon="14.926569159706">
        <ele>155.2</ele>
        <time>2020-03-05T18:58:30Z</time>
      </trkpt>
      <trkpt lat="56.866278114039" lon="14.926597909623">
        <ele>153.8</ele>
        <time>2020-03-05T18:58:33Z</time>
      </trkpt>
      <trkpt lat="56.866264954456" lon="14.926612829405">
        <ele>153.2</ele>
        <time>2020-03-05T18:58:34Z</time>
      </trkpt>
      <trkpt lat="56.866249783217" lon="14.926628252101">
        <ele>152.8</ele>
        <time>2020-03-05T18:58:35Z</time>
      </trkpt>
      <trkpt lat="56.866234360521" lon="14.926647195195">
        <ele>152.2</ele>
        <time>2020-03-05T18:58:36Z</time>
      </trkpt>
      <trkpt lat="56.866204772414" lon="14.926671167429">
        <ele>151.2</ele>
        <time>2020-03-05T18:58:38Z</time>
      </trkpt>
      <trkpt lat="56.866194462677" lon="14.926688015048">
        <ele>150.8</ele>
        <time>2020-03-05T18:58:39Z</time>
      </trkpt>
      <trkpt lat="56.866167137683" lon="14.926708550703">
        <ele>150</ele>
        <time>2020-03-05T18:58:41Z</time>
      </trkpt>
      <trkpt lat="56.866125144364" lon="14.926727409978">
        <ele>149.4</ele>
        <time>2020-03-05T18:58:44Z</time>
      </trkpt>
      <trkpt lat="56.866029590704" lon="14.926763787424">
        <ele>149.6</ele>
        <time>2020-03-05T18:58:51Z</time>
      </trkpt>
      <trkpt lat="56.866018442777" lon="14.926789603676">
        <ele>149.6</ele>
        <time>2020-03-05T18:58:52Z</time>
      </trkpt>
      <trkpt lat="56.866010479972" lon="14.926823718009">
        <ele>149.4</ele>
        <time>2020-03-05T18:58:54Z</time>
      </trkpt>
      <trkpt lat="56.866022633727" lon="14.926841739094">
        <ele>149.6</ele>
        <time>2020-03-05T18:58:56Z</time>
      </trkpt>
      <trkpt lat="56.866044594305" lon="14.926889515924">
        <ele>150.2</ele>
        <time>2020-03-05T18:59:00Z</time>
      </trkpt>
      <trkpt lat="56.86605423349" lon="14.926941902799">
        <ele>150.6</ele>
        <time>2020-03-05T18:59:02Z</time>
      </trkpt>
      <trkpt lat="56.866052305653" lon="14.926964617748">
        <ele>151</ele>
        <time>2020-03-05T18:59:03Z</time>
      </trkpt>
      <trkpt lat="56.866040319536" lon="14.926998312986">
        <ele>151.2</ele>
        <time>2020-03-05T18:59:04Z</time>
      </trkpt>
      <trkpt lat="56.866047276513" lon="14.92689739491">
        <ele>151</ele>
        <time>2020-03-05T18:59:16Z</time>
      </trkpt>
      <trkpt lat="56.866097064999" lon="14.926766218175">
        <ele>150.4</ele>
        <time>2020-03-05T18:59:21Z</time>
      </trkpt>
      <trkpt lat="56.866106117451" lon="14.926738390267">
        <ele>149.6</ele>
        <time>2020-03-05T18:59:23Z</time>
      </trkpt>
      <trkpt lat="56.866155822118" lon="14.926673346723">
        <ele>150.8</ele>
        <time>2020-03-05T18:59:29Z</time>
      </trkpt>
      <trkpt lat="56.86616152181" lon="14.926662534072">
        <ele>151.2</ele>
        <time>2020-03-05T18:59:30Z</time>
      </trkpt>
      <trkpt lat="56.866179207619" lon="14.926616768898">
        <ele>151.8</ele>
        <time>2020-03-05T18:59:32Z</time>
      </trkpt>
      <trkpt lat="56.866210053011" lon="14.926574524122">
        <ele>153.4</ele>
        <time>2020-03-05T18:59:35Z</time>
      </trkpt>
      <trkpt lat="56.866244586439" lon="14.926537476124">
        <ele>154.6</ele>
        <time>2020-03-05T18:59:38Z</time>
      </trkpt>
      <trkpt lat="56.866295380753" lon="14.926497913556">
        <ele>155.8</ele>
        <time>2020-03-05T18:59:41Z</time>
      </trkpt>
      <trkpt lat="56.866421612167" lon="14.92638358444">
        <ele>155</ele>
        <time>2020-03-05T18:59:50Z</time>
      </trkpt>
      <trkpt lat="56.866428988239" lon="14.926344943881">
        <ele>154.6</ele>
        <time>2020-03-05T18:59:51Z</time>
      </trkpt>
      <trkpt lat="56.866394119535" lon="14.926172779655">
        <ele>153.2</ele>
        <time>2020-03-05T18:59:55Z</time>
      </trkpt>
      <trkpt lat="56.866372661871" lon="14.926088625379">
        <ele>152.2</ele>
        <time>2020-03-05T18:59:58Z</time>
      </trkpt>
      <trkpt lat="56.866400908874" lon="14.926045710051">
        <ele>151.8</ele>
        <time>2020-03-05T19:00:01Z</time>
      </trkpt>
      <trkpt lat="56.866402333797" lon="14.925999777239">
        <ele>151.8</ele>
        <time>2020-03-05T19:00:03Z</time>
      </trkpt>
      <trkpt lat="56.86639453863" lon="14.925863655183">
        <ele>151.2</ele>
        <time>2020-03-05T19:00:08Z</time>
      </trkpt>
      <trkpt lat="56.866406860023" lon="14.92578511678">
        <ele>150.2</ele>
        <time>2020-03-05T19:00:11Z</time>
      </trkpt>
      <trkpt lat="56.86645488831" lon="14.925597865134">
        <ele>149.6</ele>
        <time>2020-03-05T19:00:18Z</time>
      </trkpt>
      <trkpt lat="56.866464192219" lon="14.925533240685">
        <ele>149</ele>
        <time>2020-03-05T19:00:21Z</time>
      </trkpt>
      <trkpt lat="56.866469640454" lon="14.925515554876">
        <ele>148.8</ele>
        <time>2020-03-05T19:00:22Z</time>
      </trkpt>
      <trkpt lat="56.86649512143" lon="14.925441123604">
        <ele>148.4</ele>
        <time>2020-03-05T19:00:25Z</time>
      </trkpt>
      <trkpt lat="56.866549939056" lon="14.925265522799">
        <ele>147.8</ele>
        <time>2020-03-05T19:00:32Z</time>
      </trkpt>
      <trkpt lat="56.866559410603" lon="14.925255548338">
        <ele>147.6</ele>
        <time>2020-03-05T19:00:33Z</time>
      </trkpt>
      <trkpt lat="56.866574078928" lon="14.925174495365">
        <ele>147.4</ele>
        <time>2020-03-05T19:00:37Z</time>
      </trkpt>
      <trkpt lat="56.866574414204" lon="14.925126886173">
        <ele>147.6</ele>
        <time>2020-03-05T19:00:39Z</time>
      </trkpt>
      <trkpt lat="56.866566954313" lon="14.925067793778">
        <ele>147.8</ele>
        <time>2020-03-05T19:00:41Z</time>
      </trkpt>
      <trkpt lat="56.86657642586" lon="14.924926558763">
        <ele>148</ele>
        <time>2020-03-05T19:00:47Z</time>
      </trkpt>
      <trkpt lat="56.866605511053" lon="14.924849361464">
        <ele>147.8</ele>
        <time>2020-03-05T19:00:52Z</time>
      </trkpt>
      <trkpt lat="56.866598721714" lon="14.924775014011">
        <ele>147.8</ele>
        <time>2020-03-05T19:00:55Z</time>
      </trkpt>
      <trkpt lat="56.866621604301" lon="14.924797477503">
        <ele>147.8</ele>
        <time>2020-03-05T19:00:58Z</time>
      </trkpt>
      <trkpt lat="56.866660915412" lon="14.924767386482">
        <ele>147.8</ele>
        <time>2020-03-05T19:01:02Z</time>
      </trkpt>
      <trkpt lat="56.866653706978" lon="14.924703935499">
        <ele>147.6</ele>
        <time>2020-03-05T19:01:06Z</time>
      </trkpt>
      <trkpt lat="56.866633758056" lon="14.924661187809">
        <ele>147.4</ele>
        <time>2020-03-05T19:01:09Z</time>
      </trkpt>
      <trkpt lat="56.866664603448" lon="14.924552223109">
        <ele>146.8</ele>
        <time>2020-03-05T19:01:15Z</time>
      </trkpt>
      <trkpt lat="56.866659155213" lon="14.924521293898">
        <ele>146.8</ele>
        <time>2020-03-05T19:01:16Z</time>
      </trkpt>
      <trkpt lat="56.866650018942" lon="14.924481060778">
        <ele>146.4</ele>
        <time>2020-03-05T19:01:20Z</time>
      </trkpt>
      <trkpt lat="56.866630237658" lon="14.924425488781">
        <ele>146.2</ele>
        <time>2020-03-05T19:01:23Z</time>
      </trkpt>
      <trkpt lat="56.866607522709" lon="14.924433283948">
        <ele>146.6</ele>
        <time>2020-03-05T19:01:27Z</time>
      </trkpt>
      <trkpt lat="56.866616910437" lon="14.924443090771">
        <ele>146.8</ele>
        <time>2020-03-05T19:01:28Z</time>
      </trkpt>
      <trkpt lat="56.866622358672" lon="14.9244842459">
        <ele>147</ele>
        <time>2020-03-05T19:01:30Z</time>
      </trkpt>
      <trkpt lat="56.866645408897" lon="14.924546188141">
        <ele>147</ele>
        <time>2020-03-05T19:01:33Z</time>
      </trkpt>
      <trkpt lat="56.866649935123" lon="14.924560940285">
        <ele>147</ele>
        <time>2020-03-05T19:01:35Z</time>
      </trkpt>
      <trkpt lat="56.866783542609" lon="14.924694380133">
        <ele>147.4</ele>
        <time>2020-03-05T19:01:44Z</time>
      </trkpt>
      <trkpt lat="56.866830313611" lon="14.92482119828">
        <ele>147.2</ele>
        <time>2020-03-05T19:01:48Z</time>
      </trkpt>
      <trkpt lat="56.866907427091" lon="14.924907950945">
        <ele>147.8</ele>
        <time>2020-03-05T19:01:54Z</time>
      </trkpt>
      <trkpt lat="56.866917988285" lon="14.924939299251">
        <ele>148</ele>
        <time>2020-03-05T19:01:55Z</time>
      </trkpt>
      <trkpt lat="56.866950174781" lon="14.925019262577">
        <ele>148.2</ele>
        <time>2020-03-05T19:01:58Z</time>
      </trkpt>
      <trkpt lat="56.866983870019" lon="14.925105093233">
        <ele>148.2</ele>
        <time>2020-03-05T19:02:01Z</time>
      </trkpt>
      <trkpt lat="56.867028713184" lon="14.925149098208">
        <ele>148</ele>
        <time>2020-03-05T19:02:03Z</time>
      </trkpt>
      <trkpt lat="56.867235494657" lon="14.925134765159">
        <ele>148.4</ele>
        <time>2020-03-05T19:02:09Z</time>
      </trkpt>
      <trkpt lat="56.867411179281" lon="14.925050191788">
        <ele>148.6</ele>
        <time>2020-03-05T19:02:14Z</time>
      </trkpt>
      <trkpt lat="56.867601783687" lon="14.924895461914">
        <ele>148.2</ele>
        <time>2020-03-05T19:02:20Z</time>
      </trkpt>
      <trkpt lat="56.867646626852" lon="14.924841817754">
        <ele>148.6</ele>
        <time>2020-03-05T19:02:22Z</time>
      </trkpt>
      <trkpt lat="56.867792807188" lon="14.924632521711">
        <ele>148.6</ele>
        <time>2020-03-05T19:02:29Z</time>
      </trkpt>
      <trkpt lat="56.867920798801" lon="14.924507631401">
        <ele>149.2</ele>
        <time>2020-03-05T19:02:33Z</time>
      </trkpt>
      <trkpt lat="56.868088185344" lon="14.92429649134">
        <ele>149</ele>
        <time>2020-03-05T19:02:39Z</time>
      </trkpt>
      <trkpt lat="56.868249788376" lon="14.924086860021">
        <ele>149.8</ele>
        <time>2020-03-05T19:02:45Z</time>
      </trkpt>
      <trkpt lat="56.868390771934" lon="14.923856609228">
        <ele>149.6</ele>
        <time>2020-03-05T19:02:51Z</time>
      </trkpt>
      <trkpt lat="56.868536868451" lon="14.923656784732">
        <ele>149.8</ele>
        <time>2020-03-05T19:02:57Z</time>
      </trkpt>
      <trkpt lat="56.868672403774" lon="14.923438268599">
        <ele>149.6</ele>
        <time>2020-03-05T19:03:03Z</time>
      </trkpt>
      <trkpt lat="56.868774830592" lon="14.92329988343">
        <ele>150.2</ele>
        <time>2020-03-05T19:03:08Z</time>
      </trkpt>
      <trkpt lat="56.868928889914" lon="14.923105590988">
        <ele>150.2</ele>
        <time>2020-03-05T19:03:14Z</time>
      </trkpt>
      <trkpt lat="56.869016564588" lon="14.922940719015">
        <ele>149.6</ele>
        <time>2020-03-05T19:03:18Z</time>
      </trkpt>
      <trkpt lat="56.869041458831" lon="14.922899563886">
        <ele>149.2</ele>
        <time>2020-03-05T19:03:19Z</time>
      </trkpt>
      <trkpt lat="56.869154446843" lon="14.922753635007">
        <ele>148.2</ele>
        <time>2020-03-05T19:03:24Z</time>
      </trkpt>
      <trkpt lat="56.869208091003" lon="14.922720023588">
        <ele>148.2</ele>
        <time>2020-03-05T19:03:32Z</time>
      </trkpt>
      <trkpt lat="56.869229967762" lon="14.922740391605">
        <ele>148.4</ele>
        <time>2020-03-05T19:03:34Z</time>
      </trkpt>
      <trkpt lat="56.869250838693" lon="14.92277014735">
        <ele>148.6</ele>
        <time>2020-03-05T19:03:37Z</time>
      </trkpt>
      <trkpt lat="56.869332226942" lon="14.922816666895">
        <ele>149.4</ele>
        <time>2020-03-05T19:03:43Z</time>
      </trkpt>
      <trkpt lat="56.869455189415" lon="14.922837621645">
        <ele>150.4</ele>
        <time>2020-03-05T19:03:53Z</time>
      </trkpt>
      <trkpt lat="56.86962995203" lon="14.922710216765">
        <ele>151.4</ele>
        <time>2020-03-05T19:04:01Z</time>
      </trkpt>
      <trkpt lat="56.86970287456" lon="14.92264777161">
        <ele>152.4</ele>
        <time>2020-03-05T19:04:05Z</time>
      </trkpt>
      <trkpt lat="56.869742520947" lon="14.922601168246">
        <ele>152.4</ele>
        <time>2020-03-05T19:04:07Z</time>
      </trkpt>
      <trkpt lat="56.869885097066" lon="14.922542494946">
        <ele>153.6</ele>
        <time>2020-03-05T19:04:16Z</time>
      </trkpt>
      <trkpt lat="56.86989984921" lon="14.922555486891">
        <ele>153.8</ele>
        <time>2020-03-05T19:04:17Z</time>
      </trkpt>
      <trkpt lat="56.869957600501" lon="14.922569149388">
        <ele>153.6</ele>
        <time>2020-03-05T19:04:22Z</time>
      </trkpt>
      <trkpt lat="56.869991128101" lon="14.922555905986">
        <ele>153.6</ele>
        <time>2020-03-05T19:04:24Z</time>
      </trkpt>
      <trkpt lat="56.870041838596" lon="14.922506620414">
        <ele>154.6</ele>
        <time>2020-03-05T19:04:29Z</time>
      </trkpt>
      <trkpt lat="56.870053824713" lon="14.922518355074">
        <ele>154.8</ele>
        <time>2020-03-05T19:04:30Z</time>
      </trkpt>
      <trkpt lat="56.870071845798" lon="14.922544338964">
        <ele>155</ele>
        <time>2020-03-05T19:04:32Z</time>
      </trkpt>
      <trkpt lat="56.870172847693" lon="14.922627571231">
        <ele>155.4</ele>
        <time>2020-03-05T19:04:38Z</time>
      </trkpt>
      <trkpt lat="56.870249961173" lon="14.922612735268">
        <ele>155.8</ele>
        <time>2020-03-05T19:04:42Z</time>
      </trkpt>
      <trkpt lat="56.870427238358" lon="14.922752629179">
        <ele>156.6</ele>
        <time>2020-03-05T19:04:54Z</time>
      </trkpt>
      <trkpt lat="56.87050334601" lon="14.922883554457">
        <ele>156.8</ele>
        <time>2020-03-05T19:04:59Z</time>
      </trkpt>
      <trkpt lat="56.870646760319" lon="14.923099975115">
        <ele>156.8</ele>
        <time>2020-03-05T19:05:07Z</time>
      </trkpt>
      <trkpt lat="56.870650364536" lon="14.923108524653">
        <ele>156.6</ele>
        <time>2020-03-05T19:05:08Z</time>
      </trkpt>
      <trkpt lat="56.870678946815" lon="14.923157223492">
        <ele>156.4</ele>
        <time>2020-03-05T19:05:13Z</time>
      </trkpt>
      <trkpt lat="56.870695962072" lon="14.923192176015">
        <ele>156.4</ele>
        <time>2020-03-05T19:05:15Z</time>
      </trkpt>
      <trkpt lat="56.870701661764" lon="14.923260739957">
        <ele>156.4</ele>
        <time>2020-03-05T19:05:18Z</time>
      </trkpt>
      <trkpt lat="56.87074893568" lon="14.923351348296">
        <ele>156.8</ele>
        <time>2020-03-05T19:05:26Z</time>
      </trkpt>
      <trkpt lat="56.870761005616" lon="14.923334835953">
        <ele>156.6</ele>
        <time>2020-03-05T19:05:29Z</time>
      </trkpt>
      <trkpt lat="56.870757820494" lon="14.923282616716">
        <ele>156.2</ele>
        <time>2020-03-05T19:05:34Z</time>
      </trkpt>
      <trkpt lat="56.870795287587" lon="14.923178262061">
        <ele>156</ele>
        <time>2020-03-05T19:05:38Z</time>
      </trkpt>
      <trkpt lat="56.870803250392" lon="14.923106680635">
        <ele>155.8</ele>
        <time>2020-03-05T19:05:40Z</time>
      </trkpt>
      <trkpt lat="56.870753042811" lon="14.922772913377">
        <ele>156</ele>
        <time>2020-03-05T19:05:47Z</time>
      </trkpt>
      <trkpt lat="56.870680958471" lon="14.922435290445">
        <ele>156</ele>
        <time>2020-03-05T19:05:54Z</time>
      </trkpt>
      <trkpt lat="56.870620022058" lon="14.922119795729">
        <ele>155.6</ele>
        <time>2020-03-05T19:06:01Z</time>
      </trkpt>
      <trkpt lat="56.870604431724" lon="14.92185400568">
        <ele>155</ele>
        <time>2020-03-05T19:06:08Z</time>
      </trkpt>
      <trkpt lat="56.870617256031" lon="14.921758284382">
        <ele>154.6</ele>
        <time>2020-03-05T19:06:11Z</time>
      </trkpt>
      <trkpt lat="56.870631756718" lon="14.921583018853">
        <ele>153.6</ele>
        <time>2020-03-05T19:06:16Z</time>
      </trkpt>
      <trkpt lat="56.870656986237" lon="14.921359976494">
        <ele>152.6</ele>
        <time>2020-03-05T19:06:22Z</time>
      </trkpt>
      <trkpt lat="56.870652795287" lon="14.921324353419">
        <ele>152.4</ele>
        <time>2020-03-05T19:06:23Z</time>
      </trkpt>
      <trkpt lat="56.870630080338" lon="14.921132827004">
        <ele>151.2</ele>
        <time>2020-03-05T19:06:30Z</time>
      </trkpt>
      <trkpt lat="56.870614657642" lon="14.921009277798">
        <ele>150.2</ele>
        <time>2020-03-05T19:06:34Z</time>
      </trkpt>
      <trkpt lat="56.870578531653" lon="14.920651873582">
        <ele>149.2</ele>
        <time>2020-03-05T19:06:42Z</time>
      </trkpt>
      <trkpt lat="56.870579956576" lon="14.920592781187">
        <ele>148.8</ele>
        <time>2020-03-05T19:06:44Z</time>
      </trkpt>
      <trkpt lat="56.87059387053" lon="14.920527737643">
        <ele>148.6</ele>
        <time>2020-03-05T19:06:46Z</time>
      </trkpt>
      <trkpt lat="56.87056118112" lon="14.92021282966">
        <ele>148.4</ele>
        <time>2020-03-05T19:06:54Z</time>
      </trkpt>
      <trkpt lat="56.870538717628" lon="14.9200166932">
        <ele>148.2</ele>
        <time>2020-03-05T19:06:59Z</time>
      </trkpt>
      <trkpt lat="56.870559169464" lon="14.919948380715">
        <ele>148</ele>
        <time>2020-03-05T19:07:01Z</time>
      </trkpt>
      <trkpt lat="56.87054525551" lon="14.919733217342">
        <ele>147.4</ele>
        <time>2020-03-05T19:07:06Z</time>
      </trkpt>
      <trkpt lat="56.870523127294" lon="14.919626515755">
        <ele>147</ele>
        <time>2020-03-05T19:07:08Z</time>
      </trkpt>
      <trkpt lat="56.870472584437" lon="14.919472875528">
        <ele>146</ele>
        <time>2020-03-05T19:07:13Z</time>
      </trkpt>
      <trkpt lat="56.87047233298" lon="14.919470947691">
        <ele>146</ele>
        <time>2020-03-05T19:07:14Z</time>
      </trkpt>
      <trkpt lat="56.870502088725" lon="14.919522328738">
        <ele>145.8</ele>
        <time>2020-03-05T19:07:17Z</time>
      </trkpt>
      <trkpt lat="56.870588170838" lon="14.919777306136">
        <ele>147.2</ele>
        <time>2020-03-05T19:07:23Z</time>
      </trkpt>
      <trkpt lat="56.870685484697" lon="14.919962965221">
        <ele>148.2</ele>
        <time>2020-03-05T19:07:28Z</time>
      </trkpt>
      <trkpt lat="56.870855301991" lon="14.920185420847">
        <ele>148.8</ele>
        <time>2020-03-05T19:07:34Z</time>
      </trkpt>
      <trkpt lat="56.870876256741" lon="14.920244010328">
        <ele>149.2</ele>
        <time>2020-03-05T19:07:36Z</time>
      </trkpt>
      <trkpt lat="56.870871143782" lon="14.920302180714">
        <ele>149.6</ele>
        <time>2020-03-05T19:07:38Z</time>
      </trkpt>
      <trkpt lat="56.870848345014" lon="14.920376444348">
        <ele>150</ele>
        <time>2020-03-05T19:07:41Z</time>
      </trkpt>
      <trkpt lat="56.870923363019" lon="14.920357920349">
        <ele>150</ele>
        <time>2020-03-05T19:07:45Z</time>
      </trkpt>
      <trkpt lat="56.870936438783" lon="14.920342665291">
        <ele>149.8</ele>
        <time>2020-03-05T19:07:47Z</time>
      </trkpt>
    </trkseg>
  </trk>
</gpx>